Observation data for Palo Duro Reservoir 1NW on 08/14/2020      Previous  Date  Next       Current Mesonet Observations  Soil Data  Daily Summary Page  Observations in Plain Language
KPD4 140500Z 04007KT 23/21 A3002 RMK A01 T02340208  RH  085%=      5-min Rain = 0
KPD4 140501Z 04007KT 23/21 A3002 RMK A01 T02340208  RH  085%=      5-min Rain = 0
KPD4 140502Z 04007KT 24/21 A3002 RMK A01 T02350208  RH  085%=      5-min Rain = 0
KPD4 140503Z 04006KT 24/21 A3002 RMK A01 T02350208  RH  085%=      5-min Rain = 0
KPD4 140504Z 04006KT 24/21 A3002 RMK A01 T02350208  RH  085%=      5-min Rain = 0
KPD4 140505Z 05006KT 24/21 A3002 RMK A01 T02350208  RH  085%=      5-min Rain = 0
KPD4 140506Z 05006KT 23/21 A3002 RMK A01 T02340208  RH  085%=      5-min Rain = 0
KPD4 140507Z 05006KT 23/21 A3002 RMK A01 T02340208  RH  085%=      5-min Rain = 0
KPD4 140508Z 06006KT 23/21 A3002 RMK A01 T02340209  RH  086%=      5-min Rain = 0
KPD4 140509Z 05006KT 23/21 A3002 RMK A01 T02340209  RH  086%=      5-min Rain = 0
KPD4 140510Z 05005KT 23/21 A3002 RMK A01 T02340209  RH  086%=      5-min Rain = 0
KPD4 140511Z 05005KT 23/21 A3002 RMK A01 T02340209  RH  086%=      5-min Rain = 0
KPD4 140512Z 05005KT 23/21 A3002 RMK A01 T02340209  RH  086%=      5-min Rain = 0
KPD4 140513Z 05005KT 23/21 A3002 RMK A01 T02340208  RH  086%=      5-min Rain = 0
KPD4 140514Z 05005KT 23/21 A3002 RMK A01 T02340209  RH  086%=      5-min Rain = 0
KPD4 140515Z 06006KT 23/21 A3002 RMK A01 T02330209  RH  086%=      5-min Rain = 0
KPD4 140516Z 06005KT 23/21 A3001 RMK A01 T02330209  RH  086%=      5-min Rain = 0
KPD4 140517Z 06006KT 23/21 A3001 RMK A01 T02330209  RH  086%=      5-min Rain = 0
KPD4 140518Z 05006KT 23/21 A3001 RMK A01 T02320208  RH  086%=      5-min Rain = 0
KPD4 140519Z 06006KT 23/21 A3001 RMK A01 T02320209  RH  087%=      5-min Rain = 0
KPD4 140520Z 06005KT 23/21 A3001 RMK A01 T02320209  RH  087%=      5-min Rain = 0
KPD4 140521Z 07006KT 23/21 A3001 RMK A01 T02330209  RH  087%=      5-min Rain = 0
KPD4 140522Z 06005KT 23/21 A3001 RMK A01 T02320210  RH  087%=      5-min Rain = 0
KPD4 140523Z 07005KT 23/21 A3001 RMK A01 T02330209  RH  087%=      5-min Rain = 0
KPD4 140524Z 07006KT 23/21 A3001 RMK A01 T02330210  RH  087%=      5-min Rain = 0
KPD4 140525Z 07006KT 23/21 A3001 RMK A01 T02340212  RH  087%=      5-min Rain = 0
KPD4 140526Z 07005KT 24/21 A3001 RMK A01 T02360212  RH  086%=      5-min Rain = 0
KPD4 140527Z 07004KT 24/21 A3001 RMK A01 T02360212  RH  086%=      5-min Rain = 0
KPD4 140528Z 07005KT 24/21 A3001 RMK A01 T02360212  RH  086%=      5-min Rain = 0
KPD4 140529Z 07005KT 24/21 A3001 RMK A01 T02360212  RH  086%=      5-min Rain = 0
KPD4 140530Z 08005KT 24/21 A3001 RMK A01 T02360212  RH  086%=      5-min Rain = 0
KPD4 140531Z 08004KT 24/21 A3001 RMK A01 T02360212  RH  086%=      5-min Rain = 0
KPD4 140532Z 08005KT 24/21 A3001 RMK A01 T02350211  RH  087%=      5-min Rain = 0
KPD4 140533Z 09004KT 23/21 A3001 RMK A01 T02340212  RH  087%=      5-min Rain = 0
KPD4 140534Z 08004KT 23/21 A3001 RMK A01 T02340212  RH  087%=      5-min Rain = 0
KPD4 140535Z 08005KT 23/21 A3001 RMK A01 T02340212  RH  087%=      5-min Rain = 0
KPD4 140536Z 09004KT 24/21 A3001 RMK A01 T02360212  RH  087%=      5-min Rain = 0
KPD4 140537Z 08004KT 24/21 A3001 RMK A01 T02360213  RH  087%=      5-min Rain = 0
KPD4 140538Z 09005KT 24/21 A3001 RMK A01 T02370213  RH  087%=      5-min Rain = 0
KPD4 140539Z 08004KT 24/21 A3001 RMK A01 T02370213  RH  086%=      5-min Rain = 0
KPD4 140540Z 08004KT 24/21 A3001 RMK A01 T02370214  RH  086%=      5-min Rain = 0
KPD4 140541Z 08005KT 24/21 A3001 RMK A01 T02380213  RH  086%=      5-min Rain = 0
KPD4 140542Z 08005KT 24/21 A3001 RMK A01 T02390214  RH  086%=      5-min Rain = 0
KPD4 140543Z 08005KT 24/21 A3001 RMK A01 T02390213  RH  086%=      5-min Rain = 0
KPD4 140544Z 07004KT 24/21 A3001 RMK A01 T02370213  RH  086%=      5-min Rain = 0
KPD4 140545Z 07005KT 24/21 A3001 RMK A01 T02370213  RH  086%=      5-min Rain = 0
KPD4 140546Z 07006KT 24/21 A3001 RMK A01 T02360213  RH  087%=      5-min Rain = 0
KPD4 140547Z 08006KT 24/21 A3001 RMK A01 T02350212  RH  087%=      5-min Rain = 0
KPD4 140548Z 07006KT 23/21 A3001 RMK A01 T02340211  RH  087%=      5-min Rain = 0
KPD4 140549Z 07006KT 23/21 A3001 RMK A01 T02330212  RH  088%=      5-min Rain = 0
KPD4 140550Z 07006KT 23/21 A3001 RMK A01 T02340212  RH  088%=      5-min Rain = 0
KPD4 140551Z 07007KT 23/21 A3001 RMK A01 T02330212  RH  088%=      5-min Rain = 0
KPD4 140552Z 07007KT 23/21 A3001 RMK A01 T02330212  RH  088%=      5-min Rain = 0
KPD4 140553Z 06007KT 23/21 A3001 RMK A01 T02320211  RH  088%=      5-min Rain = 0
KPD4 140554Z 06006KT 23/21 A3001 RMK A01 T02310211  RH  088%=      5-min Rain = 0
KPD4 140555Z 06007KT 23/21 A3001 RMK A01 T02290211  RH  089%=      5-min Rain = 0
KPD4 140556Z 06007KT 23/21 A3001 RMK A01 T02280211  RH  090%=      5-min Rain = 0
KPD4 140557Z 06007KT 23/21 A3001 RMK A01 T02280211  RH  090%=      5-min Rain = 0
KPD4 140558Z 06007KT 23/21 A3001 RMK A01 T02280212  RH  090%=      5-min Rain = 0
KPD4 140559Z 06007KT 23/21 A3001 RMK A01 T02290212  RH  090%=      5-min Rain = 0
KPD4 140600Z 07008KT 23/21 A3001 RMK A01 T02300213  RH  090%=      5-min Rain = 0
KPD4 140601Z 06007KT 23/21 A3001 RMK A01 T02310213  RH  089%=      5-min Rain = 0
KPD4 140602Z 06006KT 23/21 A3001 RMK A01 T02320213  RH  089%=      5-min Rain = 0
KPD4 140603Z 06007KT 23/21 A3001 RMK A01 T02310213  RH  089%=      5-min Rain = 0
KPD4 140604Z 06007KT 23/21 A3001 RMK A01 T02310214  RH  090%=      5-min Rain = 0
KPD4 140605Z 07008KT 23/21 A3001 RMK A01 T02310213  RH  090%=      5-min Rain = 0
KPD4 140606Z 06008KT 23/21 A3001 RMK A01 T02310214  RH  090%=      5-min Rain = 0
KPD4 140607Z 06009KT 23/22 A3001 RMK A01 T02320215  RH  090%=      5-min Rain = 0
KPD4 140608Z 07008KT 23/22 A3001 RMK A01 T02330215  RH  090%=      5-min Rain = 0
KPD4 140609Z 06007KT 23/21 A3001 RMK A01 T02330214  RH  089%=      5-min Rain = 0
KPD4 140610Z 06008KT 23/21 A3001 RMK A01 T02330214  RH  089%=      5-min Rain = 0
KPD4 140611Z 06007KT 23/21 A3001 RMK A01 T02320213  RH  089%=      5-min Rain = 0
KPD4 140612Z 06008KT 23/21 A3001 RMK A01 T02310213  RH  090%=      5-min Rain = 0
KPD4 140613Z 06008KT 23/21 A3001 RMK A01 T02310214  RH  090%=      5-min Rain = 0
KPD4 140614Z 07008KT 23/21 A3001 RMK A01 T02310213  RH  090%=      5-min Rain = 0
KPD4 140615Z 06008KT 23/21 A3001 RMK A01 T02310214  RH  091%=      5-min Rain = 0
KPD4 140616Z 07008KT 23/22 A3001 RMK A01 T02310215  RH  090%=      5-min Rain = 0
KPD4 140617Z 06007KT 23/22 A3001 RMK A01 T02320215  RH  090%=      5-min Rain = 0
KPD4 140618Z 06008KT 23/22 A3001 RMK A01 T02320215  RH  090%=      5-min Rain = 0
KPD4 140619Z 07008KT 23/22 A3001 RMK A01 T02320216  RH  091%=      5-min Rain = 0
KPD4 140620Z 07008KT 23/22 A3001 RMK A01 T02320216  RH  090%=      5-min Rain = 0
KPD4 140621Z 06007KT 23/22 A3001 RMK A01 T02320216  RH  090%=      5-min Rain = 0
KPD4 140622Z 06007KT 23/22 A3001 RMK A01 T02320216  RH  091%=      5-min Rain = 0
KPD4 140623Z 06006KT 23/22 A3001 RMK A01 T02320216  RH  091%=      5-min Rain = 0
KPD4 140624Z 07007KT 23/22 A3001 RMK A01 T02320215  RH  090%=      5-min Rain = 0
KPD4 140625Z 06006KT 23/22 A3001 RMK A01 T02320216  RH  090%=      5-min Rain = 0
KPD4 140626Z 06006KT 23/22 A3001 RMK A01 T02310215  RH  091%=      5-min Rain = 0
KPD4 140627Z 07006KT 23/22 A3001 RMK A01 T02310215  RH  091%=      5-min Rain = 0
KPD4 140628Z 06006KT 23/22 A3001 RMK A01 T02310216  RH  091%=      5-min Rain = 0
KPD4 140629Z 06005KT 23/22 A3001 RMK A01 T02310215  RH  091%=      5-min Rain = 0
KPD4 140630Z 06005KT 23/22 A30 RMK A01 T02310215  RH  091%=      5-min Rain = 0
KPD4 140631Z 06006KT 23/21 A30 RMK A01 T02300214  RH  091%=      5-min Rain = 0
KPD4 140632Z 07007KT 23/22 A30 RMK A01 T02300215  RH  091%=      5-min Rain = 0
KPD4 140633Z 06006KT 23/22 A30 RMK A01 T02300215  RH  091%=      5-min Rain = 0
KPD4 140634Z 06007KT 23/21 A30 RMK A01 T02290214  RH  091%=      5-min Rain = 0
KPD4 140635Z 07007KT 23/21 A30 RMK A01 T02280213  RH  091%=      5-min Rain = 0
KPD4 140636Z 07007KT 23/21 A30 RMK A01 T02280214  RH  092%=      5-min Rain = 0
KPD4 140637Z 07007KT 23/22 A30 RMK A01 T02280215  RH  092%=      5-min Rain = 0
KPD4 140638Z 07007KT 23/22 A30 RMK A01 T02280215  RH  092%=      5-min Rain = 0
KPD4 140639Z 06006KT 23/22 A30 RMK A01 T02280215  RH  092%=      5-min Rain = 0
KPD4 140640Z 06008KT 23/22 A30 RMK A01 T02280215  RH  092%=      5-min Rain = 0
KPD4 140641Z 06007KT 23/22 A30 RMK A01 T02280215  RH  092%=      5-min Rain = 0
KPD4 140642Z 06007KT 23/22 A30 RMK A01 T02280215  RH  092%=      5-min Rain = 0
KPD4 140643Z 06007KT 23/22 A30 RMK A01 T02270215  RH  093%=      5-min Rain = 0
KPD4 140644Z 06007KT 23/22 A30 RMK A01 T02270215  RH  093%=      5-min Rain = 0
KPD4 140645Z 05007KT 23/22 A30 RMK A01 T02280215  RH  093%=      5-min Rain = 0
KPD4 140646Z 06007KT 23/22 A30 RMK A01 T02270215  RH  093%=      5-min Rain = 0
KPD4 140647Z 05007KT 23/22 A30 RMK A01 T02270215  RH  093%=      5-min Rain = 0
KPD4 140648Z 06007KT 23/22 A30 RMK A01 T02270215  RH  093%=      5-min Rain = 0
KPD4 140649Z 06007KT 23/22 A30 RMK A01 T02270215  RH  093%=      5-min Rain = 0
KPD4 140650Z 07007KT 23/22 A30 RMK A01 T02270215  RH  093%=      5-min Rain = 0
KPD4 140651Z 06006KT 23/22 A30 RMK A01 T02270216  RH  093%=      5-min Rain = 0
KPD4 140652Z 07007KT 23/22 A30 RMK A01 T02270216  RH  093%=      5-min Rain = 0
KPD4 140653Z 06005KT 23/22 A30 RMK A01 T02280216  RH  093%=      5-min Rain = 0
KPD4 140654Z 07006KT 23/22 A30 RMK A01 T02280216  RH  093%=      5-min Rain = 0
KPD4 140655Z 07005KT 23/22 A30 RMK A01 T02280217  RH  093%=      5-min Rain = 0
KPD4 140656Z 07006KT 23/22 A30 RMK A01 T02290217  RH  093%=      5-min Rain = 0
KPD4 140657Z 06007KT 23/22 A30 RMK A01 T02290217  RH  093%=      5-min Rain = 0
KPD4 140658Z 06006KT 23/22 A30 RMK A01 T02290217  RH  093%=      5-min Rain = 0
KPD4 140659Z 05006KT 23/22 A30 RMK A01 T02290217  RH  093%=      5-min Rain = 0
KPD4 140700Z 06006KT 23/22 A30 RMK A01 T02290217  RH  093%=      5-min Rain = 0
KPD4 140701Z 06006KT 23/22 A30 RMK A01 T02280216  RH  093%=      5-min Rain = 0
KPD4 140702Z 05006KT 23/22 A30 RMK A01 T02280216  RH  093%=      5-min Rain = 0
KPD4 140703Z 05006KT 23/22 A30 RMK A01 T02280216  RH  093%=      5-min Rain = 0
KPD4 140704Z 05005KT 23/22 A30 RMK A01 T02270215  RH  093%=      5-min Rain = 0
KPD4 140705Z 05005KT 23/21 A30 RMK A01 T02260214  RH  093%=      5-min Rain = 0
KPD4 140706Z 04005KT 23/21 A30 RMK A01 T02250214  RH  093%=      5-min Rain = 0
KPD4 140707Z 04005KT 23/21 A30 RMK A01 T02250213  RH  093%=      5-min Rain = 0
KPD4 140708Z 05005KT 22/21 A30 RMK A01 T02240213  RH  093%=      5-min Rain = 0
KPD4 140709Z 04004KT 22/21 A30 RMK A01 T02240213  RH  094%=      5-min Rain = 0
KPD4 140710Z 04005KT 22/21 A30 RMK A01 T02240213  RH  094%=      5-min Rain = 0
KPD4 140711Z 04005KT 22/21 A30 RMK A01 T02230213  RH  094%=      5-min Rain = 0
KPD4 140712Z 04005KT 22/21 A30 RMK A01 T02230213  RH  094%=      5-min Rain = 0
KPD4 140713Z 04005KT 22/21 A30 RMK A01 T02230212  RH  094%=      5-min Rain = 0
KPD4 140714Z 04006KT 22/21 A30 RMK A01 T02220212  RH  094%=      5-min Rain = 0
KPD4 140715Z 05006KT 22/21 A30 RMK A01 T02220212  RH  094%=      5-min Rain = 0
KPD4 140716Z 04007KT 22/21 A30 RMK A01 T02210212  RH  094%=      5-min Rain = 0
KPD4 140717Z 05007KT 22/21 A30 RMK A01 T02210212  RH  095%=      5-min Rain = 0
KPD4 140718Z 04008KT 22/21 A30 RMK A01 T02210212  RH  095%=      5-min Rain = 0
KPD4 140719Z 05008KT 22/21 A30 RMK A01 T02210213  RH  095%=      5-min Rain = 0
KPD4 140720Z 05007KT 22/21 A2999 RMK A01 T02220214  RH  095%=      5-min Rain = 0
KPD4 140721Z 05007KT 22/21 A2999 RMK A01 T02220214  RH  095%=      5-min Rain = 0
KPD4 140722Z 05007KT 22/21 A2999 RMK A01 T02220213  RH  095%=      5-min Rain = 0
KPD4 140723Z 05007KT 22/21 A2999 RMK A01 T02220213  RH  095%=      5-min Rain = 0
KPD4 140724Z 05007KT 22/21 A2999 RMK A01 T02210212  RH  095%=      5-min Rain = 0
KPD4 140725Z 05007KT 22/21 A2999 RMK A01 T02210212  RH  095%=      5-min Rain = 0
KPD4 140726Z 05007KT 22/21 A30 RMK A01 T02200212  RH  095%=      5-min Rain = 0
KPD4 140727Z 05006KT 22/21 A30 RMK A01 T02210213  RH  095%=      5-min Rain = 0
KPD4 140728Z 04005KT 22/21 A30 RMK A01 T02210213  RH  095%=      5-min Rain = 0
KPD4 140729Z 04005KT 22/21 A30 RMK A01 T02210213  RH  095%=      5-min Rain = 0
KPD4 140730Z 04005KT 22/21 A30 RMK A01 T02210213  RH  095%=      5-min Rain = 0
KPD4 140731Z 03003KT 22/21 A30 RMK A01 T02200213  RH  095%=      5-min Rain = 0
KPD4 140732Z 04004KT 22/21 A30 RMK A01 T02200213  RH  095%=      5-min Rain = 0
KPD4 140733Z 03003KT 22/21 A30 RMK A01 T02210213  RH  095%=      5-min Rain = 0
KPD4 140734Z 04003KT 22/21 A30 RMK A01 T02210213  RH  095%=      5-min Rain = 0
KPD4 140735Z 04004KT 22/21 A30 RMK A01 T02210213  RH  095%=      5-min Rain = 0
KPD4 140736Z 04004KT 22/21 A30 RMK A01 T02210213  RH  095%=      5-min Rain = 0
KPD4 140737Z 05005KT 22/21 A30 RMK A01 T02210213  RH  095%=      5-min Rain = 0
KPD4 140738Z 04005KT 22/21 A2999 RMK A01 T02210213  RH  095%=      5-min Rain = 0
KPD4 140739Z 04005KT 22/21 A2999 RMK A01 T02210213  RH  095%=      5-min Rain = 0
KPD4 140740Z 04006KT 22/21 A2999 RMK A01 T02200212  RH  095%=      5-min Rain = 0
KPD4 140741Z 04006KT 22/21 A2999 RMK A01 T02200212  RH  095%=      5-min Rain = 0
KPD4 140742Z 03006KT 22/21 A2999 RMK A01 T02200212  RH  095%=      5-min Rain = 0
KPD4 140743Z 03006KT 22/21 A2999 RMK A01 T02200212  RH  095%=      5-min Rain = 0
KPD4 140744Z 03006KT 22/21 A2999 RMK A01 T02200212  RH  095%=      5-min Rain = 0
KPD4 140745Z 02006KT 22/21 A30 RMK A01 T02190212  RH  095%=      5-min Rain = 0
KPD4 140746Z 02006KT 22/21 A30 RMK A01 T02190211  RH  096%=      5-min Rain = 0
KPD4 140747Z 02006KT 22/21 A30 RMK A01 T02190211  RH  096%=      5-min Rain = 0
KPD4 140748Z 01005KT 22/21 A30 RMK A01 T02180210  RH  095%=      5-min Rain = 0
KPD4 140749Z 36004KT 22/20 A30 RMK A01 T02150204  RH  094%=      5-min Rain = 0
KPD4 140750Z 35005KT 21/20 A30 RMK A01 T02110201  RH  094%=      5-min Rain = 0
KPD4 140751Z 34005KT 21/20 A30 RMK A01 T02100201  RH  095%=      5-min Rain = 0
KPD4 140752Z 33006KT 21/20 A30 RMK A01 T02090201  RH  095%=      5-min Rain = 0
KPD4 140753Z 33006KT 21/20 A30 RMK A01 T02080201  RH  096%=      5-min Rain = 0
KPD4 140754Z 33006KT 21/20 A30 RMK A01 T02080201  RH  096%=      5-min Rain = 0
KPD4 140755Z 33006KT 21/20 A30 RMK A01 T02080202  RH  096%=      5-min Rain = 0
KPD4 140756Z 34006KT 21/20 A30 RMK A01 T02070202  RH  096%=      5-min Rain = 0
KPD4 140757Z 34006KT 21/20 A30 RMK A01 T02070202  RH  097%=      5-min Rain = 0
KPD4 140758Z 35006KT 21/20 A30 RMK A01 T02070202  RH  097%=      5-min Rain = 0
KPD4 140759Z 36005KT 21/20 A2999 RMK A01 T02070202  RH  097%=      5-min Rain = 0
KPD4 140800Z 00005KT 21/20 A2999 RMK A01 T02070203  RH  097%=      5-min Rain = 0
KPD4 140801Z 01005KT 21/20 A2999 RMK A01 T02080203  RH  097%=      5-min Rain = 0
KPD4 140802Z 01005KT 21/20 A2999 RMK A01 T02080204  RH  097%=      5-min Rain = 0
KPD4 140803Z 02005KT 21/20 A2999 RMK A01 T02090204  RH  097%=      5-min Rain = 0
KPD4 140804Z 02005KT 21/20 A2999 RMK A01 T02090204  RH  097%=      5-min Rain = 0
KPD4 140805Z 01005KT 21/20 A2999 RMK A01 T02090204  RH  097%=      5-min Rain = 0
KPD4 140806Z 01005KT 21/20 A2999 RMK A01 T02080203  RH  097%=      5-min Rain = 0
KPD4 140807Z 36004KT 21/20 A2999 RMK A01 T02070202  RH  097%=      5-min Rain = 0
KPD4 140808Z 35004KT 21/20 A2999 RMK A01 T02060201  RH  097%=      5-min Rain = 0
KPD4 140809Z 35004KT 21/20 A2999 RMK A01 T02050200  RH  097%=      5-min Rain = 0
KPD4 140810Z 35005KT 21/20 A2999 RMK A01 T02050200  RH  097%=      5-min Rain = 0
KPD4 140811Z 36005KT 20/20 A2999 RMK A01 T02040199  RH  097%=      5-min Rain = 0
KPD4 140812Z 00005KT 20/20 A2999 RMK A01 T02040200  RH  097%=      5-min Rain = 0
KPD4 140813Z 00006KT 20/20 A2999 RMK A01 T02040200  RH  097%=      5-min Rain = 0
KPD4 140814Z 00006KT 21/20 A2999 RMK A01 T02050200  RH  097%=      5-min Rain = 0
KPD4 140815Z 01006KT 21/20 A2999 RMK A01 T02050200  RH  097%=      5-min Rain = 0
KPD4 140816Z 01006KT 20/20 A2999 RMK A01 T02040200  RH  097%=      5-min Rain = 0
KPD4 140817Z 01006KT 20/20 A2999 RMK A01 T02030199  RH  097%=      5-min Rain = 0
KPD4 140818Z 01006KT 20/20 A2999 RMK A01 T02030199  RH  097%=      5-min Rain = 0
KPD4 140819Z 00005KT 20/20 A2999 RMK A01 T02030198  RH  097%=      5-min Rain = 0
KPD4 140820Z 36005KT 20/20 A2999 RMK A01 T02020198  RH  097%=      5-min Rain = 0
KPD4 140821Z 36006KT 20/20 A2999 RMK A01 T02010197  RH  097%=      5-min Rain = 0
KPD4 140822Z 35006KT 20/20 A2999 RMK A01 T02010197  RH  097%=      5-min Rain = 0
KPD4 140823Z 35006KT 20/20 A2999 RMK A01 T02000196  RH  097%=      5-min Rain = 0
KPD4 140824Z 36006KT 20/20 A2999 RMK A01 T02000196  RH  097%=      5-min Rain = 0
KPD4 140825Z 00006KT 20/20 A2999 RMK A01 T01990195  RH  097%=      5-min Rain = 0
KPD4 140826Z 00006KT 20/20 A2999 RMK A01 T01990195  RH  097%=      5-min Rain = 0
KPD4 140827Z 01006KT 20/20 A2999 RMK A01 T01990195  RH  097%=      5-min Rain = 0
KPD4 140828Z 02006KT 20/20 A2999 RMK A01 T01990195  RH  098%=      5-min Rain = 0
KPD4 140829Z 02006KT 20/20 A2999 RMK A01 T02000196  RH  098%=      5-min Rain = 0
KPD4 140830Z 02007KT 20/20 A2999 RMK A01 T02010197  RH  098%=      5-min Rain = 0
KPD4 140831Z 03007KT 20/20 A2999 RMK A01 T02020199  RH  098%=      5-min Rain = 0
KPD4 140832Z 03007KT 20/20 A2999 RMK A01 T02030200  RH  098%=      5-min Rain = 0
KPD4 140833Z 03008KT 20/20 A2998 RMK A01 T02040201  RH  098%=      5-min Rain = 0
KPD4 140834Z 03008KT 21/20 A2998 RMK A01 T02050202  RH  098%=      5-min Rain = 0
KPD4 140835Z 03008KT 21/20 A2998 RMK A01 T02060203  RH  098%=      5-min Rain = 0
KPD4 140836Z 03007KT 21/20 A2998 RMK A01 T02060204  RH  098%=      5-min Rain = 0
KPD4 140837Z 03007KT 21/20 A2998 RMK A01 T02070204  RH  098%=      5-min Rain = 0
KPD4 140838Z 03007KT 21/20 A2998 RMK A01 T02070204  RH  098%=      5-min Rain = 0
KPD4 140839Z 03006KT 21/21 A2998 RMK A01 T02080205  RH  098%=      5-min Rain = 0
KPD4 140840Z 04006KT 21/20 A2998 RMK A01 T02070204  RH  098%=      5-min Rain = 0
KPD4 140841Z 04007KT 21/20 A2998 RMK A01 T02070204  RH  098%=      5-min Rain = 0
KPD4 140842Z 04006KT 21/20 A2998 RMK A01 T02070203  RH  098%=      5-min Rain = 0
KPD4 140843Z 04006KT 21/20 A2998 RMK A01 T02060203  RH  098%=      5-min Rain = 0
KPD4 140844Z 04005KT 21/20 A2998 RMK A01 T02060203  RH  098%=      5-min Rain = 0
KPD4 140845Z 04005KT 21/20 A2998 RMK A01 T02060203  RH  098%=      5-min Rain = 0
KPD4 140846Z 04005KT 21/20 A2998 RMK A01 T02060203  RH  098%=      5-min Rain = 0
KPD4 140847Z 04006KT 21/20 A2998 RMK A01 T02060203  RH  098%=      5-min Rain = 0
KPD4 140848Z 04005KT 21/20 A2998 RMK A01 T02060203  RH  098%=      5-min Rain = 0
KPD4 140849Z 05005KT 21/20 A2998 RMK A01 T02050202  RH  098%=      5-min Rain = 0
KPD4 140850Z 05006KT 21/20 A2998 RMK A01 T02050202  RH  098%=      5-min Rain = 0
KPD4 140851Z 05006KT 20/20 A2998 RMK A01 T02040201  RH  098%=      5-min Rain = 0
KPD4 140852Z 05006KT 20/20 A2998 RMK A01 T02040200  RH  098%=      5-min Rain = 0
KPD4 140853Z 05006KT 20/20 A2997 RMK A01 T02030200  RH  098%=      5-min Rain = 0
KPD4 140854Z 05006KT 20/20 A2997 RMK A01 T02030199  RH  098%=      5-min Rain = 0
KPD4 140855Z 05008KT 20/20 A2997 RMK A01 T02020199  RH  098%=      5-min Rain = 0
KPD4 140856Z 05008KT 20/20 A2997 RMK A01 T02020199  RH  098%=      5-min Rain = 0
KPD4 140857Z 04008KT 20/20 A2997 RMK A01 T02020199  RH  098%=      5-min Rain = 0
KPD4 140858Z 05008KT 20/20 A2997 RMK A01 T02030200  RH  098%=      5-min Rain = 0
KPD4 140859Z 05007KT 20/20 A2997 RMK A01 T02030200  RH  098%=      5-min Rain = 0
KPD4 140900Z 04007KT 20/20 A2997 RMK A01 T02020199  RH  098%=      5-min Rain = 0
KPD4 140901Z 04008KT 20/20 A2997 RMK A01 T02010199  RH  098%=      5-min Rain = 0
KPD4 140902Z 04008KT 20/20 A2997 RMK A01 T02010199  RH  098%=      5-min Rain = 0
KPD4 140903Z 04009KT 20/20 A2996 RMK A01 T02010198  RH  098%=      5-min Rain = 0
KPD4 140904Z 04008KT 20/20 A2996 RMK A01 T02010198  RH  098%=      5-min Rain = 0
KPD4 140905Z 05008KT 20/20 A2996 RMK A01 T02010198  RH  098%=      5-min Rain = 0
KPD4 140906Z 04009KT 20/20 A2996 RMK A01 T02010198  RH  098%=      5-min Rain = 0
KPD4 140907Z 04009KT 20/20 A2996 RMK A01 T02020199  RH  098%=      5-min Rain = 0
KPD4 140908Z 04009KT 20/20 A2996 RMK A01 T02020200  RH  098%=      5-min Rain = 0
KPD4 140909Z 04010KT 20/20 A2996 RMK A01 T02020199  RH  098%=      5-min Rain = 0
KPD4 140910Z 04009KT 20/20 A2996 RMK A01 T02020199  RH  098%=      5-min Rain = 0
KPD4 140911Z 04009KT 20/20 A2996 RMK A01 T02020199  RH  098%=      5-min Rain = 0
KPD4 140912Z 04010KT 20/20 A2996 RMK A01 T02020200  RH  098%=      5-min Rain = 0
KPD4 140913Z 04009KT 20/20 A2996 RMK A01 T02030201  RH  098%=      5-min Rain = 0
KPD4 140914Z 04008KT 20/20 A2996 RMK A01 T02030200  RH  098%=      5-min Rain = 0
KPD4 140915Z 04008KT 20/20 A2996 RMK A01 T02030200  RH  098%=      5-min Rain = 0
KPD4 140916Z 04007KT 20/20 A2997 RMK A01 T02020200  RH  098%=      5-min Rain = 0
KPD4 140917Z 03007KT 20/20 A2997 RMK A01 T02020200  RH  098%=      5-min Rain = 0
KPD4 140918Z 03006KT 20/20 A2997 RMK A01 T02020200  RH  098%=      5-min Rain = 0
KPD4 140919Z 03005KT 20/20 A2997 RMK A01 T02030200  RH  099%=      5-min Rain = 0
KPD4 140920Z 00002KT 20/20 A2997 RMK A01 T02030200  RH  098%=      5-min Rain = 0
KPD4 140921Z 30002KT 20/20 A2997 RMK A01 T02030201  RH  098%=      5-min Rain = 0
KPD4 140922Z 27004KT 20/20 A2998 RMK A01 T02030201  RH  099%=      5-min Rain = 0
KPD4 140923Z 26006KT 20/20 A2998 RMK A01 T02030201  RH  098%=      5-min Rain = 0
KPD4 140924Z 26008KT 20/20 A2998 RMK A01 T02030201  RH  098%=      5-min Rain = 0
KPD4 140925Z 26009KT 20/20 A2998 RMK A01 T02030201  RH  099%=      5-min Rain = 0
KPD4 140926Z 27010KT 20/20 A2998 RMK A01 T02040202  RH  099%=      5-min Rain = 0
KPD4 140927Z 27008KT 21/20 A2998 RMK A01 T02050203  RH  099%=      5-min Rain = 0
KPD4 140928Z 28007KT 21/20 A2998 RMK A01 T02050203  RH  099%=      5-min Rain = 0
KPD4 140929Z 28006KT 21/20 A2998 RMK A01 T02050203  RH  099%=      5-min Rain = 0
KPD4 140930Z 29006KT 21/20 A2998 RMK A01 T02050203  RH  099%=      5-min Rain = 0
KPD4 140931Z 30005KT 21/20 A2998 RMK A01 T02060204  RH  099%=      5-min Rain = 0
KPD4 140932Z 32004KT 21/20 A2997 RMK A01 T02060204  RH  099%=      5-min Rain = 0
KPD4 140933Z 35003KT 21/20 A2997 RMK A01 T02060204  RH  099%=      5-min Rain = 0
KPD4 140934Z 00003KT 21/20 A2997 RMK A01 T02060204  RH  099%=      5-min Rain = 0
KPD4 140935Z 02003KT 21/20 A2997 RMK A01 T02060204  RH  099%=      5-min Rain = 0
KPD4 140936Z 03002KT 21/20 A2997 RMK A01 T02060204  RH  099%=      5-min Rain = 0
KPD4 140937Z 02002KT 21/20 A2997 RMK A01 T02070204  RH  099%=      5-min Rain = 0
KPD4 140938Z 34002KT 21/21 A2998 RMK A01 T02080205  RH  099%=      5-min Rain = 0
KPD4 140939Z 34002KT 21/21 A2998 RMK A01 T02080206  RH  099%=      5-min Rain = 0
KPD4 140940Z 32002KT 21/21 A2998 RMK A01 T02080206  RH  099%=      5-min Rain = 0
KPD4 140941Z 31003KT 21/21 A2998 RMK A01 T02090207  RH  099%=      5-min Rain = 0
KPD4 140942Z 31004KT 21/21 A2998 RMK A01 T02090207  RH  099%=      5-min Rain = 0
KPD4 140943Z 30004KT 21/21 A2998 RMK A01 T02080206  RH  099%=      5-min Rain = 0
KPD4 140944Z 31004KT 21/21 A2998 RMK A01 T02080206  RH  099%=      5-min Rain = 0
KPD4 140945Z 31005KT 21/21 A2998 RMK A01 T02080206  RH  099%=      5-min Rain = 0
KPD4 140946Z 31004KT 21/21 A2998 RMK A01 T02080206  RH  099%=      5-min Rain = 0
KPD4 140947Z 33003KT 21/21 A2998 RMK A01 T02080206  RH  099%=      5-min Rain = 0
KPD4 140948Z 34003KT 21/21 A2998 RMK A01 T02080206  RH  099%=      5-min Rain = 0
KPD4 140949Z 34003KT 21/21 A2998 RMK A01 T02070205  RH  099%=      5-min Rain = 0
KPD4 140950Z 35003KT 21/21 A2998 RMK A01 T02070205  RH  099%=      5-min Rain = 0
KPD4 140951Z 33002KT 21/21 A2998 RMK A01 T02070205  RH  099%=      5-min Rain = 0
KPD4 140952Z 30003KT 21/21 A2998 RMK A01 T02070205  RH  099%=      5-min Rain = 0
KPD4 140953Z 28003KT 21/21 A2998 RMK A01 T02070205  RH  099%=      5-min Rain = 0
KPD4 140954Z 27004KT 21/21 A2998 RMK A01 T02070205  RH  099%=      5-min Rain = 0
KPD4 140955Z 27004KT 21/21 A2998 RMK A01 T02070205  RH  099%=      5-min Rain = 0
KPD4 140956Z 27006KT 21/21 A2998 RMK A01 T02070205  RH  099%=      5-min Rain = 0
KPD4 140957Z 27006KT 21/20 A2998 RMK A01 T02070204  RH  099%=      5-min Rain = 0
KPD4 140958Z 27005KT 21/20 A2998 RMK A01 T02070204  RH  099%=      5-min Rain = 0
KPD4 140959Z 27005KT 21/20 A2998 RMK A01 T02070204  RH  099%=      5-min Rain = 0
KPD4 141000Z 28005KT 21/20 A2998 RMK A01 T02070204  RH  099%=      5-min Rain = 0
KPD4 141001Z 29004KT 21/20 A2998 RMK A01 T02060204  RH  099%=      5-min Rain = 0
KPD4 141002Z 31003KT 21/20 A2998 RMK A01 T02060204  RH  099%=      5-min Rain = 0
KPD4 141003Z 32003KT 21/20 A2998 RMK A01 T02070204  RH  099%=      5-min Rain = 0
KPD4 141004Z 33004KT 21/20 A2998 RMK A01 T02060204  RH  099%=      5-min Rain = 0
KPD4 141005Z 32004KT 21/21 A2998 RMK A01 T02070205  RH  099%=      5-min Rain = 0
KPD4 141006Z 32004KT 21/21 A2998 RMK A01 T02070205  RH  099%=      5-min Rain = 0
KPD4 141007Z 30004KT 21/21 A2998 RMK A01 T02070205  RH  099%=      5-min Rain = 0
KPD4 141008Z 29006KT 21/21 A2998 RMK A01 T02070205  RH  099%=      5-min Rain = 0
KPD4 141009Z 28006KT 21/21 A2998 RMK A01 T02080206  RH  099%=      5-min Rain = 0
KPD4 141010Z 28007KT 21/21 A2998 RMK A01 T02080206  RH  099%=      5-min Rain = 0
KPD4 141011Z 29007KT 21/21 A2998 RMK A01 T02070205  RH  099%=      5-min Rain = 0
KPD4 141012Z 30006KT 21/21 A2998 RMK A01 T02070205  RH  099%=      5-min Rain = 0
KPD4 141013Z 31005KT 21/21 A2998 RMK A01 T02080206  RH  099%=      5-min Rain = 0
KPD4 141014Z 31005KT 21/21 A2998 RMK A01 T02070205  RH  099%=      5-min Rain = 0
KPD4 141015Z 32005KT 21/21 A2998 RMK A01 T02070205  RH  099%=      5-min Rain = 0
KPD4 141016Z 31005KT 21/21 A2998 RMK A01 T02070205  RH  099%=      5-min Rain = 0
KPD4 141017Z 31005KT 21/21 A2998 RMK A01 T02080206  RH  099%=      5-min Rain = 0
KPD4 141018Z 31005KT 21/21 A2998 RMK A01 T02080206  RH  099%=      5-min Rain = 0
KPD4 141019Z 30005KT 21/21 A2998 RMK A01 T02080206  RH  099%=      5-min Rain = 0
KPD4 141020Z 29005KT 21/21 A2998 RMK A01 T02080206  RH  099%=      5-min Rain = 0
KPD4 141021Z 29005KT 21/21 A2998 RMK A01 T02090207  RH  099%=      5-min Rain = 0
KPD4 141022Z 29005KT 21/21 A2998 RMK A01 T02090207  RH  099%=      5-min Rain = 0
KPD4 141023Z 29005KT 21/21 A2998 RMK A01 T02090207  RH  099%=      5-min Rain = 0
KPD4 141024Z 29005KT 21/21 A2998 RMK A01 T02090207  RH  099%=      5-min Rain = 0
KPD4 141025Z 30004KT 21/21 A2998 RMK A01 T02090207  RH  099%=      5-min Rain = 0
KPD4 141026Z 30004KT 21/21 A2998 RMK A01 T02090207  RH  099%=      5-min Rain = 0
KPD4 141027Z 29005KT 21/21 A2998 RMK A01 T02090207  RH  099%=      5-min Rain = 0
KPD4 141028Z 29004KT 21/21 A2998 RMK A01 T02090207  RH  099%=      5-min Rain = 0
KPD4 141029Z 29004KT 21/21 A2998 RMK A01 T02100208  RH  099%=      5-min Rain = 0
KPD4 141030Z 29004KT 21/21 A2998 RMK A01 T02100208  RH  099%=      5-min Rain = 0
KPD4 141031Z 29005KT 21/21 A2998 RMK A01 T02100208  RH  099%=      5-min Rain = 0
KPD4 141032Z 28004KT 21/21 A2998 RMK A01 T02100208  RH  099%=      5-min Rain = 0
KPD4 141033Z 28006KT 21/21 A2998 RMK A01 T02100208  RH  099%=      5-min Rain = 0
KPD4 141034Z 28006KT 21/21 A2998 RMK A01 T02100209  RH  099%=      5-min Rain = 0
KPD4 141035Z 28006KT 21/21 A2998 RMK A01 T02110209  RH  099%=      5-min Rain = 0
KPD4 141036Z 28005KT 21/21 A2998 RMK A01 T02110209  RH  099%=      5-min Rain = 0
KPD4 141037Z 29004KT 21/21 A2998 RMK A01 T02110209  RH  099%=      5-min Rain = 0
KPD4 141038Z 28004KT 21/21 A2998 RMK A01 T02110209  RH  099%=      5-min Rain = 0
KPD4 141039Z 27004KT 21/21 A2998 RMK A01 T02110209  RH  099%=      5-min Rain = 0
KPD4 141040Z 27004KT 21/21 A2998 RMK A01 T02110209  RH  099%=      5-min Rain = 0
KPD4 141041Z 27004KT 21/21 A2998 RMK A01 T02110209  RH  099%=      5-min Rain = 0
KPD4 141042Z 27003KT 21/21 A2998 RMK A01 T02110209  RH  099%=      5-min Rain = 0
KPD4 141043Z 24002KT 21/21 A2998 RMK A01 T02120210  RH  099%=      5-min Rain = 0
KPD4 141044Z 26003KT 21/21 A2998 RMK A01 T02110209  RH  099%=      5-min Rain = 0
KPD4 141045Z 28002KT 21/21 A2998 RMK A01 T02120210  RH  099%=      5-min Rain = 0
KPD4 141046Z 26002KT 21/21 A2998 RMK A01 T02110209  RH  099%=      5-min Rain = 0
KPD4 141047Z 26003KT 21/21 A2998 RMK A01 T02120210  RH  099%=      5-min Rain = 0
KPD4 141048Z 27002KT 21/21 A2998 RMK A01 T02110210  RH  099%=      5-min Rain = 0
KPD4 141049Z 27002KT 21/21 A2998 RMK A01 T02120210  RH  099%=      5-min Rain = 0
KPD4 141050Z 26002KT 21/21 A2998 RMK A01 T02120210  RH  099%=      5-min Rain = 0
KPD4 141051Z 25003KT 21/21 A2998 RMK A01 T02120210  RH  099%=      5-min Rain = 0
KPD4 141052Z 25002KT 21/21 A2998 RMK A01 T02120210  RH  099%=      5-min Rain = 0
KPD4 141053Z 22002KT 21/21 A2998 RMK A01 T02120210  RH  099%=      5-min Rain = 0
KPD4 141054Z 18002KT 21/21 A2998 RMK A01 T02130211  RH  099%=      5-min Rain = 0
KPD4 141055Z 19001KT 21/21 A2998 RMK A01 T02140212  RH  099%=      5-min Rain = 0
KPD4 141056Z 21001KT 21/21 A2998 RMK A01 T02140212  RH  099%=      5-min Rain = 0
KPD4 141057Z 22002KT 21/21 A2998 RMK A01 T02140212  RH  099%=      5-min Rain = 0
KPD4 141058Z 24003KT 22/21 A2998 RMK A01 T02150213  RH  099%=      5-min Rain = 0
KPD4 141059Z 23003KT 22/21 A2998 RMK A01 T02150213  RH  099%=      5-min Rain = 0
KPD4 141100Z 20004KT 22/21 A2998 RMK A01 T02150213  RH  099%=      5-min Rain = 0
KPD4 141101Z 16004KT 22/21 A2998 RMK A01 T02150213  RH  099%=      5-min Rain = 0
KPD4 141102Z 14004KT 22/21 A2998 RMK A01 T02160214  RH  099%=      5-min Rain = 0
KPD4 141103Z 16003KT 22/21 A2998 RMK A01 T02160214  RH  099%=      5-min Rain = 0
KPD4 141104Z 16003KT 22/21 A2998 RMK A01 T02160214  RH  099%=      5-min Rain = 0
KPD4 141105Z 16003KT 22/21 A2998 RMK A01 T02160214  RH  099%=      5-min Rain = 0
KPD4 141106Z 16003KT 22/21 A2998 RMK A01 T02160214  RH  099%=      5-min Rain = 0
KPD4 141107Z 17002KT 22/21 A2998 RMK A01 T02160214  RH  099%=      5-min Rain = 0
KPD4 141108Z 14002KT 22/21 A2998 RMK A01 T02160214  RH  099%=      5-min Rain = 0
KPD4 141109Z 14002KT 22/21 A2998 RMK A01 T02150214  RH  099%=      5-min Rain = 0
KPD4 141110Z 15002KT 22/21 A2998 RMK A01 T02150213  RH  099%=      5-min Rain = 0
KPD4 141111Z 15002KT 22/21 A2998 RMK A01 T02150213  RH  099%=      5-min Rain = 0
KPD4 141112Z 15002KT 21/21 A2998 RMK A01 T02140212  RH  099%=      5-min Rain = 0
KPD4 141113Z 13003KT 21/21 A2998 RMK A01 T02140212  RH  099%=      5-min Rain = 0
KPD4 141114Z 13003KT 21/21 A2998 RMK A01 T02140212  RH  099%=      5-min Rain = 0
KPD4 141115Z 12002KT 21/21 A2998 RMK A01 T02140212  RH  099%=      5-min Rain = 0
KPD4 141116Z 13002KT 21/21 A2998 RMK A01 T02140212  RH  099%=      5-min Rain = 0
KPD4 141117Z 15002KT 21/21 A2998 RMK A01 T02140212  RH  099%=      5-min Rain = 0
KPD4 141118Z 16002KT 21/21 A2998 RMK A01 T02130212  RH  099%=      5-min Rain = 0
KPD4 141119Z 15003KT 21/21 A2998 RMK A01 T02130212  RH  099%=      5-min Rain = 0
KPD4 141120Z 16003KT 21/21 A2998 RMK A01 T02140212  RH  099%=      5-min Rain = 0
KPD4 141121Z 16003KT 22/21 A2998 RMK A01 T02150213  RH  099%=      5-min Rain = 0
KPD4 141122Z 14003KT 22/21 A2998 RMK A01 T02150213  RH  099%=      5-min Rain = 0
KPD4 141123Z 14003KT 22/21 A2998 RMK A01 T02150213  RH  099%=      5-min Rain = 0
KPD4 141124Z 15004KT 22/21 A2998 RMK A01 T02150214  RH  099%=      5-min Rain = 0
KPD4 141125Z 15003KT 22/21 A2998 RMK A01 T02150214  RH  099%=      5-min Rain = 0
KPD4 141126Z 15003KT 22/21 A2998 RMK A01 T02150214  RH  099%=      5-min Rain = 0
KPD4 141127Z 15003KT 22/21 A2998 RMK A01 T02150214  RH  099%=      5-min Rain = 0
KPD4 141128Z 14003KT 22/21 A2998 RMK A01 T02160214  RH  099%=      5-min Rain = 0
KPD4 141129Z 13002KT 22/21 A2998 RMK A01 T02160214  RH  099%=      5-min Rain = 0
KPD4 141130Z 12002KT 22/21 A2998 RMK A01 T02160214  RH  099%=      5-min Rain = 0
KPD4 141131Z 11002KT 22/21 A2998 RMK A01 T02150214  RH  099%=      5-min Rain = 0
KPD4 141132Z 11001KT 22/21 A2998 RMK A01 T02150213  RH  099%=      5-min Rain = 0
KPD4 141133Z 11000KT 22/21 A2998 RMK A01 T02150213  RH  099%=      5-min Rain = 0
KPD4 141134Z 00000KT 22/21 A2998 RMK A01 T02150213  RH  099%=      5-min Rain = 0
KPD4 141135Z 00000KT 22/21 A2998 RMK A01 T02150213  RH  099%=      5-min Rain = 0
KPD4 141136Z 00000KT 22/21 A2998 RMK A01 T02150213  RH  099%=      5-min Rain = 0
KPD4 141137Z 11000KT 22/21 A2998 RMK A01 T02150213  RH  099%=      5-min Rain = 0
KPD4 141138Z 09002KT 22/21 A2998 RMK A01 T02150213  RH  099%=      5-min Rain = 0
KPD4 141139Z 09002KT 22/21 A2998 RMK A01 T02150213  RH  099%=      5-min Rain = 0
KPD4 141140Z 08002KT 22/21 A2998 RMK A01 T02150213  RH  099%=      5-min Rain = 0
KPD4 141141Z 09002KT 22/21 A2998 RMK A01 T02150213  RH  099%=      5-min Rain = 0
KPD4 141142Z 07001KT 22/21 A2998 RMK A01 T02150213  RH  099%=      5-min Rain = 0
KPD4 141143Z 06000KT 22/21 A2998 RMK A01 T02150213  RH  099%=      5-min Rain = 0
KPD4 141144Z 00000KT 22/21 A2998 RMK A01 T02150213  RH  099%=      5-min Rain = 0
KPD4 141145Z 00000KT 22/21 A2998 RMK A01 T02150213  RH  099%=      5-min Rain = 0
KPD4 141146Z 00000KT 22/21 A2998 RMK A01 T02150214  RH  099%=      5-min Rain = 0
KPD4 141147Z 00000KT 22/21 A2998 RMK A01 T02160214  RH  099%=      5-min Rain = 0
KPD4 141148Z 06001KT 22/21 A2998 RMK A01 T02150214  RH  099%=      5-min Rain = 0
KPD4 141149Z 07001KT 22/21 A2998 RMK A01 T02160214  RH  099%=      5-min Rain = 0
KPD4 141150Z 07002KT 22/21 A2998 RMK A01 T02160214  RH  099%=      5-min Rain = 0
KPD4 141151Z 06002KT 22/21 A2998 RMK A01 T02160214  RH  099%=      5-min Rain = 0
KPD4 141152Z 05003KT 22/21 A2998 RMK A01 T02160214  RH  099%=      5-min Rain = 0
KPD4 141153Z 05004KT 22/21 A2999 RMK A01 T02160214  RH  099%=      5-min Rain = 0
KPD4 141154Z 05004KT 22/21 A2999 RMK A01 T02160214  RH  099%=      5-min Rain = 0
KPD4 141155Z 05004KT 22/21 A2999 RMK A01 T02160214  RH  099%=      5-min Rain = 0
KPD4 141156Z 05004KT 22/21 A2999 RMK A01 T02160214  RH  099%=      5-min Rain = 0
KPD4 141157Z 05004KT 22/21 A2999 RMK A01 T02160214  RH  099%=      5-min Rain = 0
KPD4 141158Z 04004KT 22/21 A2999 RMK A01 T02160214  RH  099%=      5-min Rain = 0
KPD4 141159Z 04004KT 22/21 A2999 RMK A01 T02160214  RH  099%=      5-min Rain = 0
KPD4 141200Z 03003KT 22/21 A2999 RMK A01 T02160214  RH  099%=      5-min Rain = 0
KPD4 141201Z 03003KT 22/21 A2999 RMK A01 T02160214  RH  099%=      5-min Rain = 0
KPD4 141202Z 06002KT 22/21 A2999 RMK A01 T02160214  RH  099%=      5-min Rain = 0
KPD4 141203Z 06002KT 22/21 A2999 RMK A01 T02160214  RH  099%=      5-min Rain = 0
KPD4 141204Z 06001KT 22/21 A2999 RMK A01 T02150214  RH  099%=      5-min Rain = 0
KPD4 141205Z 07001KT 22/21 A2999 RMK A01 T02150213  RH  099%=      5-min Rain = 0
KPD4 141206Z 06001KT 22/21 A2999 RMK A01 T02150213  RH  099%=      5-min Rain = 0
KPD4 141207Z 05001KT 22/21 A2999 RMK A01 T02150213  RH  099%=      5-min Rain = 0
KPD4 141208Z 05002KT 22/21 A2999 RMK A01 T02150213  RH  099%=      5-min Rain = 0
KPD4 141209Z 05003KT 22/21 A2999 RMK A01 T02150213  RH  099%=      5-min Rain = 0
KPD4 141210Z 05003KT 22/21 A2999 RMK A01 T02150213  RH  099%=      5-min Rain = 0
KPD4 141211Z 05003KT 21/21 A2999 RMK A01 T02140213  RH  099%=      5-min Rain = 0
KPD4 141212Z 05003KT 21/21 A2999 RMK A01 T02140212  RH  099%=      5-min Rain = 0
KPD4 141213Z 06003KT 21/21 A2999 RMK A01 T02140212  RH  099%=      5-min Rain = 0
KPD4 141214Z 07003KT 21/21 A2999 RMK A01 T02140212  RH  099%=      5-min Rain = 0
KPD4 141215Z 07002KT 21/21 A2999 RMK A01 T02140213  RH  099%=      5-min Rain = 0
KPD4 141216Z 08001KT 21/21 A2999 RMK A01 T02140212  RH  099%=      5-min Rain = 0
KPD4 141217Z 08000KT 21/21 A2999 RMK A01 T02140212  RH  099%=      5-min Rain = 0
KPD4 141218Z 00000KT 21/21 A2999 RMK A01 T02140212  RH  099%=      5-min Rain = 0
KPD4 141219Z 00000KT 21/21 A2999 RMK A01 T02140212  RH  099%=      5-min Rain = 0
KPD4 141220Z 00000KT 21/21 A2999 RMK A01 T02140212  RH  099%=      5-min Rain = 0
KPD4 141221Z 00000KT 21/21 A2999 RMK A01 T02140212  RH  099%=      5-min Rain = 0
KPD4 141222Z 00000KT 21/21 A2999 RMK A01 T02140212  RH  099%=      5-min Rain = 0
KPD4 141223Z 00000KT 21/21 A2999 RMK A01 T02140212  RH  099%=      5-min Rain = 0
KPD4 141224Z 00000KT 21/21 A2999 RMK A01 T02140212  RH  099%=      5-min Rain = 0
KPD4 141225Z 00000KT 21/21 A2999 RMK A01 T02140212  RH  099%=      5-min Rain = 0
KPD4 141226Z 00000KT 21/21 A2999 RMK A01 T02140212  RH  099%=      5-min Rain = 0
KPD4 141227Z 00000KT 22/21 A2999 RMK A01 T02150213  RH  099%=      5-min Rain = 0
KPD4 141228Z 05001KT 22/21 A2999 RMK A01 T02150213  RH  099%=      5-min Rain = 0
KPD4 141229Z 05002KT 22/21 A2999 RMK A01 T02150213  RH  099%=      5-min Rain = 0
KPD4 141230Z 07002KT 22/21 A2999 RMK A01 T02150213  RH  099%=      5-min Rain = 0
KPD4 141231Z 07002KT 21/21 A2999 RMK A01 T02140213  RH  099%=      5-min Rain = 0
KPD4 141232Z 08001KT 21/21 A2999 RMK A01 T02140212  RH  099%=      5-min Rain = 0
KPD4 141233Z 13001KT 21/21 A30 RMK A01 T02140213  RH  099%=      5-min Rain = 0
KPD4 141234Z 14001KT 21/21 A30 RMK A01 T02140212  RH  099%=      5-min Rain = 0
KPD4 141235Z 16001KT 21/21 A30 RMK A01 T02140212  RH  099%=      5-min Rain = 0
KPD4 141236Z 16001KT 21/21 A30 RMK A01 T02140212  RH  099%=      5-min Rain = 0
KPD4 141237Z 16000KT 21/21 A30 RMK A01 T02140212  RH  099%=      5-min Rain = 0
KPD4 141238Z 31002KT 21/21 A30 RMK A01 T02140212  RH  099%=      5-min Rain = 0
KPD4 141239Z 32002KT 21/21 A30 RMK A01 T02140212  RH  099%=      5-min Rain = 0
KPD4 141240Z 32000KT 21/21 A30 RMK A01 T02140212  RH  099%=      5-min Rain = 0
KPD4 141241Z 00000KT 21/21 A30 RMK A01 T02140212  RH  099%=      5-min Rain = 0
KPD4 141242Z 21001KT 21/21 A30 RMK A01 T02140212  RH  099%=      5-min Rain = 0
KPD4 141243Z 22002KT 21/21 A30 RMK A01 T02140212  RH  099%=      5-min Rain = 0
KPD4 141244Z 23003KT 21/21 A3001 RMK A01 T02140212  RH  099%=      5-min Rain = 0
KPD4 141245Z 25003KT 22/21 A3001 RMK A01 T02150213  RH  099%=      5-min Rain = 0
KPD4 141246Z 25003KT 22/21 A3001 RMK A01 T02150213  RH  099%=      5-min Rain = 0
KPD4 141247Z 27003KT 22/21 A3001 RMK A01 T02150213  RH  099%=      5-min Rain = 0
KPD4 141248Z 26003KT 22/21 A3001 RMK A01 T02150213  RH  099%=      5-min Rain = 0
KPD4 141249Z 25006KT 22/21 A3001 RMK A01 T02150214  RH  099%=      5-min Rain = 0
KPD4 141250Z 25009KT 22/21 A3002 RMK A01 T02160214  RH  099%=      5-min Rain = 0
KPD4 141251Z 25010KT 22/21 A3002 RMK A01 T02160214  RH  099%=      5-min Rain = 0
KPD4 141252Z 25008KT 22/21 A3002 RMK A01 T02150214  RH  099%=      5-min Rain = 0
KPD4 141253Z 25009KT 22/21 A3002 RMK A01 T02160214  RH  099%=      5-min Rain = 0
KPD4 141254Z 24011KT 22/21 A3002 RMK A01 T02160214  RH  099%=      5-min Rain = 0
KPD4 141255Z 25009KT 22/21 A3002 RMK A01 T02150213  RH  099%=      5-min Rain = 0
KPD4 141256Z 26007KT 22/21 A3002 RMK A01 T02150213  RH  099%=      5-min Rain = 0
KPD4 141257Z 25008KT 22/21 A3002 RMK A01 T02150213  RH  099%=      5-min Rain = 0
KPD4 141258Z 26006KT 22/21 A3002 RMK A01 T02150213  RH  099%=      5-min Rain = 0
KPD4 141259Z 26006KT 22/21 A3002 RMK A01 T02150213  RH  099%=      5-min Rain = 0
KPD4 141300Z 26004KT 22/21 A3001 RMK A01 T02150213  RH  099%=      5-min Rain = 0
KPD4 141301Z 25004KT 22/21 A3001 RMK A01 T02150213  RH  099%=      5-min Rain = 0
KPD4 141302Z 26005KT 22/21 A3002 RMK A01 T02150213  RH  099%=      5-min Rain = 0
KPD4 141303Z 25006KT 22/21 A3002 RMK A01 T02150213  RH  099%=      5-min Rain = 0
KPD4 141304Z 25006KT 22/21 A3002 RMK A01 T02150213  RH  099%=      5-min Rain = 0
KPD4 141305Z 26005KT 22/21 A3002 RMK A01 T02150214  RH  099%=      5-min Rain = 0
KPD4 141306Z 27005KT 22/21 A3002 RMK A01 T02160214  RH  099%=      5-min Rain = 0
KPD4 141307Z 26005KT 22/21 A3002 RMK A01 T02160214  RH  099%=      5-min Rain = 0
KPD4 141308Z 26009KT 22/22 A3002 RMK A01 T02170215  RH  099%=      5-min Rain = 0
KPD4 141309Z 26010KT 22/22 A3002 RMK A01 T02170215  RH  099%=      5-min Rain = 0
KPD4 141310Z 26008KT 22/22 A3002 RMK A01 T02170215  RH  099%=      5-min Rain = 0
KPD4 141311Z 25006KT 22/22 A3002 RMK A01 T02160215  RH  099%=      5-min Rain = 0
KPD4 141312Z 26005KT 22/22 A3002 RMK A01 T02170215  RH  099%=      5-min Rain = 0
KPD4 141313Z 26005KT 22/22 A3002 RMK A01 T02170215  RH  099%=      5-min Rain = 0
KPD4 141314Z 26006KT 22/22 A3002 RMK A01 T02170215  RH  099%=      5-min Rain = 0
KPD4 141315Z 25006KT 22/22 A3002 RMK A01 T02170215  RH  099%=      5-min Rain = 0
KPD4 141316Z 26007KT 22/22 A3002 RMK A01 T02170215  RH  099%=      5-min Rain = 0
KPD4 141317Z 26008KT 22/22 A3002 RMK A01 T02170215  RH  099%=      5-min Rain = 0
KPD4 141318Z 26009KT 22/22 A3002 RMK A01 T02160215  RH  099%=      5-min Rain = 0
KPD4 141319Z 25007KT 22/21 A3002 RMK A01 T02160214  RH  099%=      5-min Rain = 0
KPD4 141320Z 25008KT 22/21 A3002 RMK A01 T02160214  RH  099%=      5-min Rain = 0
KPD4 141321Z 25007KT 22/21 A3002 RMK A01 T02160214  RH  099%=      5-min Rain = 0
KPD4 141322Z 26008KT 22/21 A3002 RMK A01 T02160214  RH  099%=      5-min Rain = 0
KPD4 141323Z 26006KT 22/21 A3002 RMK A01 T02160214  RH  099%=      5-min Rain = 0
KPD4 141324Z 26006KT 22/21 A3002 RMK A01 T02160214  RH  099%=      5-min Rain = 0
KPD4 141325Z 26008KT 22/22 A3002 RMK A01 T02160215  RH  099%=      5-min Rain = 0
KPD4 141326Z 26008KT 22/22 A3002 RMK A01 T02160215  RH  099%=      5-min Rain = 0
KPD4 141327Z 26008KT 22/21 A3002 RMK A01 T02160214  RH  099%=      5-min Rain = 0
KPD4 141328Z 25007KT 22/21 A3002 RMK A01 T02160214  RH  099%=      5-min Rain = 0
KPD4 141329Z 25007KT 22/21 A3002 RMK A01 T02160214  RH  099%=      5-min Rain = 0
KPD4 141330Z 26006KT 22/21 A3002 RMK A01 T02160214  RH  099%=      5-min Rain = 0
KPD4 141331Z 26006KT 22/22 A3002 RMK A01 T02170215  RH  099%=      5-min Rain = 0
KPD4 141332Z 26006KT 22/22 A3002 RMK A01 T02170215  RH  099%=      5-min Rain = 0
KPD4 141333Z 26006KT 22/22 A3002 RMK A01 T02170216  RH  099%=      5-min Rain = 0
KPD4 141334Z 27007KT 22/22 A3002 RMK A01 T02180216  RH  099%=      5-min Rain = 0
KPD4 141335Z 26007KT 22/22 A3002 RMK A01 T02180216  RH  099%=      5-min Rain = 0
KPD4 141336Z 25008KT 22/22 A3002 RMK A01 T02170216  RH  099%=      5-min Rain = 0
KPD4 141337Z 26007KT 22/22 A3002 RMK A01 T02170215  RH  099%=      5-min Rain = 0
KPD4 141338Z 24006KT 22/22 A3002 RMK A01 T02170215  RH  099%=      5-min Rain = 0
KPD4 141339Z 24006KT 22/22 A3002 RMK A01 T02170215  RH  099%=      5-min Rain = 0
KPD4 141340Z 24006KT 22/21 A3002 RMK A01 T02160214  RH  099%=      5-min Rain = 0
KPD4 141341Z 24005KT 22/22 A3002 RMK A01 T02170215  RH  099%=      5-min Rain = 0
KPD4 141342Z 26007KT 22/22 A3002 RMK A01 T02180216  RH  099%=      5-min Rain = 0
KPD4 141343Z 25006KT 22/22 A3002 RMK A01 T02170216  RH  099%=      5-min Rain = 0
KPD4 141344Z 26005KT 22/22 A3002 RMK A01 T02180216  RH  099%=      5-min Rain = 0
KPD4 141345Z 25005KT 22/22 A3003 RMK A01 T02180216  RH  099%=      5-min Rain = 0
KPD4 141346Z 27006KT 22/22 A3003 RMK A01 T02180216  RH  099%=      5-min Rain = 0
KPD4 141347Z 26007KT 22/22 A3003 RMK A01 T02180216  RH  099%=      5-min Rain = 0
KPD4 141348Z 25007KT 22/22 A3003 RMK A01 T02170216  RH  099%=      5-min Rain = 0
KPD4 141349Z 25006KT 22/22 A3003 RMK A01 T02170215  RH  099%=      5-min Rain = 0
KPD4 141350Z 25007KT 22/22 A3003 RMK A01 T02170215  RH  099%=      5-min Rain = 0
KPD4 141351Z 25006KT 22/22 A3003 RMK A01 T02160215  RH  099%=      5-min Rain = 0
KPD4 141352Z 25006KT 22/22 A3003 RMK A01 T02170215  RH  099%=      5-min Rain = 0
KPD4 141353Z 26006KT 22/22 A3003 RMK A01 T02180216  RH  099%=      5-min Rain = 0
KPD4 141354Z 26005KT 22/22 A3003 RMK A01 T02180217  RH  099%=      5-min Rain = 0
KPD4 141355Z 26006KT 22/22 A3003 RMK A01 T02180216  RH  099%=      5-min Rain = 0
KPD4 141356Z 26006KT 22/22 A3003 RMK A01 T02190217  RH  099%=      5-min Rain = 0
KPD4 141357Z 27004KT 22/22 A3003 RMK A01 T02190217  RH  099%=      5-min Rain = 0
KPD4 141358Z 27005KT 22/22 A3003 RMK A01 T02200218  RH  099%=      5-min Rain = 0
KPD4 141359Z 28004KT 22/22 A3002 RMK A01 T02190217  RH  099%=      5-min Rain = 0
KPD4 141400Z 29004KT 22/22 A3002 RMK A01 T02190217  RH  099%=      5-min Rain = 0
KPD4 141401Z 29004KT 22/22 A3002 RMK A01 T02190217  RH  099%=      5-min Rain = 0
KPD4 141402Z 30005KT 22/22 A3002 RMK A01 T02200218  RH  099%=      5-min Rain = 0
KPD4 141403Z 30005KT 22/22 A3002 RMK A01 T02200218  RH  099%=      5-min Rain = 0
KPD4 141404Z 30004KT 22/22 A3002 RMK A01 T02200218  RH  099%=      5-min Rain = 0
KPD4 141405Z 30008KT 22/22 A3002 RMK A01 T02210219  RH  099%=      5-min Rain = 0
KPD4 141406Z 29006KT 22/22 A3002 RMK A01 T02190217  RH  099%=      5-min Rain = 0
KPD4 141407Z 29005KT 22/22 A3002 RMK A01 T02190217  RH  098%=      5-min Rain = 0
KPD4 141408Z 29004KT 22/22 A3002 RMK A01 T02180215  RH  098%=      5-min Rain = 0
KPD4 141409Z 31004KT 22/22 A3002 RMK A01 T02180215  RH  098%=      5-min Rain = 0
KPD4 141410Z 30004KT 22/22 A3002 RMK A01 T02190217  RH  098%=      5-min Rain = 0
KPD4 141411Z 29004KT 22/22 A3002 RMK A01 T02200217  RH  098%=      5-min Rain = 0
KPD4 141412Z 28004KT 22/22 A3002 RMK A01 T02220219  RH  098%=      5-min Rain = 0
KPD4 141413Z 28003KT 22/22 A3002 RMK A01 T02210218  RH  098%=      5-min Rain = 0
KPD4 141414Z 27004KT 22/22 A3002 RMK A01 T02210218  RH  098%=      5-min Rain = 0
KPD4 141415Z 28004KT 22/22 A3002 RMK A01 T02220219  RH  098%=      5-min Rain = 0
KPD4 141416Z 31005KT 22/22 A3002 RMK A01 T02220219  RH  098%=      5-min Rain = 0
KPD4 141417Z 32004KT 22/22 A3002 RMK A01 T02230219  RH  098%=      5-min Rain = 0
KPD4 141418Z 31003KT 22/22 A3002 RMK A01 T02220218  RH  098%=      5-min Rain = 0
KPD4 141419Z 31006KT 23/22 A3002 RMK A01 T02250221  RH  098%=      5-min Rain = 0
KPD4 141420Z 30005KT 22/22 A3002 RMK A01 T02230219  RH  098%=      5-min Rain = 0
KPD4 141421Z 31003KT 22/22 A3002 RMK A01 T02230219  RH  097%=      5-min Rain = 0
KPD4 141422Z 32002KT 22/22 A3001 RMK A01 T02220217  RH  097%=      5-min Rain = 0
KPD4 141423Z 31002KT 22/22 A3001 RMK A01 T02230218  RH  097%=      5-min Rain = 0
KPD4 141424Z 32003KT 23/22 A3001 RMK A01 T02250221  RH  097%=      5-min Rain = 0
KPD4 141425Z 33003KT 23/22 A3001 RMK A01 T02250220  RH  097%=      5-min Rain = 0
KPD4 141426Z 32002KT 23/22 A3001 RMK A01 T02250219  RH  097%=      5-min Rain = 0
KPD4 141427Z 31004KT 23/22 A3001 RMK A01 T02260220  RH  096%=      5-min Rain = 0
KPD4 141428Z 30004KT 23/22 A3001 RMK A01 T02270220  RH  096%=      5-min Rain = 0
KPD4 141429Z 27004KT 23/22 A3001 RMK A01 T02280221  RH  096%=      5-min Rain = 0
KPD4 141430Z 26005KT 23/22 A3001 RMK A01 T02300224  RH  096%=      5-min Rain = 0
KPD4 141431Z 26004KT 23/22 A3001 RMK A01 T02280221  RH  096%=      5-min Rain = 0
KPD4 141432Z 25003KT 23/22 A3001 RMK A01 T02270219  RH  095%=      5-min Rain = 0
KPD4 141433Z 26005KT 23/22 A3001 RMK A01 T02290222  RH  096%=      5-min Rain = 0
KPD4 141434Z 25005KT 23/22 A3001 RMK A01 T02290221  RH  095%=      5-min Rain = 0
KPD4 141435Z 26005KT 23/22 A3001 RMK A01 T02280218  RH  095%=      5-min Rain = 0
KPD4 141436Z 27004KT 23/22 A3001 RMK A01 T02270217  RH  094%=      5-min Rain = 0
KPD4 141437Z 27003KT 23/22 A3001 RMK A01 T02280217  RH  094%=      5-min Rain = 0
KPD4 141438Z 28002KT 23/22 A3001 RMK A01 T02280216  RH  093%=      5-min Rain = 0
KPD4 141439Z 29003KT 23/22 A3001 RMK A01 T02290218  RH  094%=      5-min Rain = 0
KPD4 141440Z 27005KT 23/22 A3001 RMK A01 T02300219  RH  093%=      5-min Rain = 0
KPD4 141441Z 26005KT 23/22 A3001 RMK A01 T02320220  RH  093%=      5-min Rain = 0
KPD4 141442Z 26005KT 23/22 A3001 RMK A01 T02330219  RH  092%=      5-min Rain = 0
KPD4 141443Z 27004KT 23/22 A3001 RMK A01 T02330219  RH  092%=      5-min Rain = 0
KPD4 141444Z 27004KT 23/22 A3001 RMK A01 T02330220  RH  092%=      5-min Rain = 0
KPD4 141445Z 25005KT 23/22 A3001 RMK A01 T02340221  RH  092%=      5-min Rain = 0
KPD4 141446Z 26005KT 24/22 A3001 RMK A01 T02350217  RH  090%=      5-min Rain = 0
KPD4 141447Z 27004KT 24/22 A3001 RMK A01 T02350220  RH  091%=      5-min Rain = 0
KPD4 141448Z 27003KT 24/22 A3001 RMK A01 T02390222  RH  091%=      5-min Rain = 0
KPD4 141449Z 27004KT 24/22 A3001 RMK A01 T02390219  RH  088%=      5-min Rain = 0
KPD4 141450Z 25003KT 24/22 A3001 RMK A01 T02400219  RH  088%=      5-min Rain = 0
KPD4 141451Z 25004KT 24/22 A3001 RMK A01 T02410220  RH  088%=      5-min Rain = 0
KPD4 141452Z 24004KT 24/22 A3001 RMK A01 T02410220  RH  088%=      5-min Rain = 0
KPD4 141453Z 25003KT 24/22 A3001 RMK A01 T02430223  RH  089%=      5-min Rain = 0
KPD4 141454Z 30004KT 25/22 A3001 RMK A01 T02450221  RH  086%=      5-min Rain = 0
KPD4 141455Z 29004KT 24/22 A3001 RMK A01 T02430218  RH  086%=      5-min Rain = 0
KPD4 141456Z 29003KT 24/22 A3001 RMK A01 T02410219  RH  087%=      5-min Rain = 0
KPD4 141457Z 27003KT 24/22 A3001 RMK A01 T02420220  RH  088%=      5-min Rain = 0
KPD4 141458Z 28005KT 24/22 A3001 RMK A01 T02420220  RH  087%=      5-min Rain = 0
KPD4 141459Z 27005KT 24/22 A3001 RMK A01 T02430219  RH  086%=      5-min Rain = 0
KPD4 141500Z 27004KT 24/22 A30 RMK A01 T02430217  RH  085%=      5-min Rain = 0
KPD4 141501Z 27003KT 24/22 A30 RMK A01 T02430217  RH  085%=      5-min Rain = 0
KPD4 141502Z 27003KT 24/22 A30 RMK A01 T02440217  RH  085%=      5-min Rain = 0
KPD4 141503Z 27002KT 25/22 A30 RMK A01 T02450217  RH  085%=      5-min Rain = 0
KPD4 141504Z 28001KT 25/22 A30 RMK A01 T02450218  RH  085%=      5-min Rain = 0
KPD4 141505Z 29003KT 25/22 A30 RMK A01 T02460218  RH  084%=      5-min Rain = 0
KPD4 141506Z 30005KT 25/22 A30 RMK A01 T02480219  RH  084%=      5-min Rain = 0
KPD4 141507Z 29004KT 25/22 A30 RMK A01 T02480218  RH  083%=      5-min Rain = 0
KPD4 141508Z 28004KT 25/22 A30 RMK A01 T02480218  RH  083%=      5-min Rain = 0
KPD4 141509Z 28003KT 25/22 A30 RMK A01 T02470218  RH  084%=      5-min Rain = 0
KPD4 141510Z 25004KT 25/22 A30 RMK A01 T02470219  RH  085%=      5-min Rain = 0
KPD4 141511Z 25003KT 25/22 A30 RMK A01 T02470219  RH  084%=      5-min Rain = 0
KPD4 141512Z 23004KT 25/22 A30 RMK A01 T02490220  RH  084%=      5-min Rain = 0
KPD4 141513Z 25003KT 25/22 A30 RMK A01 T02500221  RH  084%=      5-min Rain = 0
KPD4 141514Z 27005KT 25/22 A30 RMK A01 T02520221  RH  083%=      5-min Rain = 0
KPD4 141515Z 27004KT 25/22 A30 RMK A01 T02520221  RH  083%=      5-min Rain = 0
KPD4 141516Z 27003KT 25/22 A30 RMK A01 T02520220  RH  082%=      5-min Rain = 0
KPD4 141517Z 29004KT 25/22 A30 RMK A01 T02520221  RH  083%=      5-min Rain = 0
KPD4 141518Z 30003KT 25/22 A30 RMK A01 T02530221  RH  082%=      5-min Rain = 0
KPD4 141519Z 31002KT 25/22 A30 RMK A01 T02530221  RH  082%=      5-min Rain = 0
KPD4 141520Z 28002KT 25/22 A30 RMK A01 T02540222  RH  082%=      5-min Rain = 0
KPD4 141521Z 27004KT 26/22 A30 RMK A01 T02570223  RH  081%=      5-min Rain = 0
KPD4 141522Z 26002KT 26/22 A30 RMK A01 T02580222  RH  081%=      5-min Rain = 0
KPD4 141523Z 29002KT 26/22 A30 RMK A01 T02580223  RH  081%=      5-min Rain = 0
KPD4 141524Z 30004KT 26/22 A30 RMK A01 T02580219  RH  079%=      5-min Rain = 0
KPD4 141525Z 25005KT 26/22 A30 RMK A01 T02580221  RH  080%=      5-min Rain = 0
KPD4 141526Z 26003KT 26/22 A30 RMK A01 T02590221  RH  079%=      5-min Rain = 0
KPD4 141527Z 22002KT 26/22 A30 RMK A01 T02610222  RH  079%=      5-min Rain = 0
KPD4 141528Z 26003KT 26/22 A30 RMK A01 T02630221  RH  078%=      5-min Rain = 0
KPD4 141529Z 26002KT 26/22 A30 RMK A01 T02620219  RH  077%=      5-min Rain = 0
KPD4 141530Z 26000KT 26/22 A30 RMK A01 T02600216  RH  076%=      5-min Rain = 0
KPD4 141531Z 00000KT 26/22 A30 RMK A01 T02590215  RH  077%=      5-min Rain = 0
KPD4 141532Z 27000KT 26/22 A30 RMK A01 T02610218  RH  077%=      5-min Rain = 0
KPD4 141533Z 26002KT 26/22 A30 RMK A01 T02640221  RH  077%=      5-min Rain = 0
KPD4 141534Z 27003KT 27/22 A30 RMK A01 T02660223  RH  077%=      5-min Rain = 0
KPD4 141535Z 29001KT 27/22 A30 RMK A01 T02660223  RH  077%=      5-min Rain = 0
KPD4 141536Z 33000KT 27/22 A30 RMK A01 T02660222  RH  077%=      5-min Rain = 0
KPD4 141537Z 33002KT 27/22 A30 RMK A01 T02670222  RH  077%=      5-min Rain = 0
KPD4 141538Z 33001KT 27/22 A30 RMK A01 T02670221  RH  076%=      5-min Rain = 0
KPD4 141539Z 00001KT 27/22 A3001 RMK A01 T02660223  RH  077%=      5-min Rain = 0
KPD4 141540Z 36002KT 27/23 A3001 RMK A01 T02680226  RH  078%=      5-min Rain = 0
KPD4 141541Z 34003KT 27/23 A3001 RMK A01 T02720226  RH  076%=      5-min Rain = 0
KPD4 141542Z 34004KT 27/22 A3001 RMK A01 T02740224  RH  074%=      5-min Rain = 0
KPD4 141543Z 35003KT 27/22 A3001 RMK A01 T02730223  RH  074%=      5-min Rain = 0
KPD4 141544Z 34003KT 27/22 A3001 RMK A01 T02710222  RH  074%=      5-min Rain = 0
KPD4 141545Z 32002KT 27/22 A3001 RMK A01 T02700220  RH  074%=      5-min Rain = 0
KPD4 141546Z 33002KT 27/22 A3001 RMK A01 T02690220  RH  074%=      5-min Rain = 0
KPD4 141547Z 35002KT 27/22 A3001 RMK A01 T02690221  RH  075%=      5-min Rain = 0
KPD4 141548Z 34001KT 27/22 A3001 RMK A01 T02710220  RH  074%=      5-min Rain = 0
KPD4 141549Z 31001KT 27/22 A3001 RMK A01 T02720220  RH  073%=      5-min Rain = 0
KPD4 141550Z 31004KT 27/22 A3001 RMK A01 T02730220  RH  073%=      5-min Rain = 0
KPD4 141551Z 31003KT 27/22 A3001 RMK A01 T02730219  RH  072%=      5-min Rain = 0
KPD4 141552Z 31003KT 27/22 A3001 RMK A01 T02730218  RH  072%=      5-min Rain = 0
KPD4 141553Z 29002KT 27/22 A3001 RMK A01 T02730218  RH  072%=      5-min Rain = 0
KPD4 141554Z 32001KT 27/22 A3001 RMK A01 T02740221  RH  073%=      5-min Rain = 0
KPD4 141555Z 33004KT 28/22 A3001 RMK A01 T02760220  RH  072%=      5-min Rain = 0
KPD4 141556Z 33004KT 28/22 A3001 RMK A01 T02760221  RH  072%=      5-min Rain = 0
KPD4 141557Z 35003KT 28/22 A3001 RMK A01 T02760222  RH  072%=      5-min Rain = 0
KPD4 141558Z 35003KT 28/22 A3001 RMK A01 T02780221  RH  071%=      5-min Rain = 0
KPD4 141559Z 31002KT 28/22 A3001 RMK A01 T02800222  RH  071%=      5-min Rain = 0
KPD4 141600Z 30002KT 28/22 A3001 RMK A01 T02810220  RH  070%=      5-min Rain = 0
KPD4 141601Z 26002KT 28/22 A3001 RMK A01 T02810218  RH  069%=      5-min Rain = 0
KPD4 141602Z 31001KT 28/22 A3001 RMK A01 T02790218  RH  070%=      5-min Rain = 0
KPD4 141603Z 01003KT 28/22 A3001 RMK A01 T02790220  RH  070%=      5-min Rain = 0
KPD4 141604Z 04002KT 28/22 A3001 RMK A01 T02800220  RH  070%=      5-min Rain = 0
KPD4 141605Z 01002KT 28/22 A3001 RMK A01 T02800222  RH  071%=      5-min Rain = 0
KPD4 141606Z 34001KT 28/22 A3001 RMK A01 T02810221  RH  070%=      5-min Rain = 0
KPD4 141607Z 32002KT 28/22 A3001 RMK A01 T02820222  RH  070%=      5-min Rain = 0
KPD4 141608Z 31003KT 28/22 A3001 RMK A01 T02830222  RH  070%=      5-min Rain = 0
KPD4 141609Z 30003KT 28/22 A3001 RMK A01 T02830221  RH  069%=      5-min Rain = 0
KPD4 141610Z 29003KT 28/22 A3001 RMK A01 T02840216  RH  066%=      5-min Rain = 0
KPD4 141611Z 29001KT 28/22 A3001 RMK A01 T02840216  RH  066%=      5-min Rain = 0
KPD4 141612Z 27001KT 28/22 A3001 RMK A01 T02840216  RH  066%=      5-min Rain = 0
KPD4 141613Z 27002KT 28/22 A3001 RMK A01 T02840217  RH  067%=      5-min Rain = 0
KPD4 141614Z 31004KT 29/22 A3001 RMK A01 T02850220  RH  068%=      5-min Rain = 0
KPD4 141615Z 31004KT 29/22 A30 RMK A01 T02860222  RH  069%=      5-min Rain = 0
KPD4 141616Z 31002KT 29/22 A30 RMK A01 T02870220  RH  067%=      5-min Rain = 0
KPD4 141617Z 30002KT 29/22 A30 RMK A01 T02870224  RH  069%=      5-min Rain = 0
KPD4 141618Z 32002KT 29/22 A30 RMK A01 T02890223  RH  067%=      5-min Rain = 0
KPD4 141619Z 33001KT 29/23 A30 RMK A01 T02920225  RH  067%=      5-min Rain = 0
KPD4 141620Z 33001KT 29/22 A30 RMK A01 T02940224  RH  066%=      5-min Rain = 0
KPD4 141621Z 03002KT 30/22 A30 RMK A01 T02960221  RH  064%=      5-min Rain = 0
KPD4 141622Z 03002KT 30/22 A30 RMK A01 T02970220  RH  063%=      5-min Rain = 0
KPD4 141623Z 03002KT 30/22 A30 RMK A01 T02970218  RH  063%=      5-min Rain = 0
KPD4 141624Z 35001KT 30/22 A30 RMK A01 T02970221  RH  063%=      5-min Rain = 0
KPD4 141625Z 32000KT 30/22 A30 RMK A01 T02990224  RH  064%=      5-min Rain = 0
KPD4 141626Z 25000KT 30/22 A30 RMK A01 T03020217  RH  060%=      5-min Rain = 0
KPD4 141627Z 24002KT 30/22 A30 RMK A01 T03040217  RH  060%=      5-min Rain = 0
KPD4 141628Z 23002KT 31/22 A30 RMK A01 T03050216  RH  059%=      5-min Rain = 0
KPD4 141629Z 23001KT 30/21 A30 RMK A01 T03040214  RH  059%=      5-min Rain = 0
KPD4 141630Z 21000KT 30/21 A30 RMK A01 T03040212  RH  058%=      5-min Rain = 0
KPD4 141631Z 16000KT 30/22 A30 RMK A01 T03030215  RH  059%=      5-min Rain = 0
KPD4 141632Z 17001KT 30/22 A30 RMK A01 T03030215  RH  059%=      5-min Rain = 0
KPD4 141633Z 33002KT 30/22 A30 RMK A01 T03040216  RH  059%=      5-min Rain = 0
KPD4 141634Z 33002KT 30/22 A30 RMK A01 T03040217  RH  060%=      5-min Rain = 0
KPD4 141635Z 33004KT 31/22 A30 RMK A01 T03060217  RH  059%=      5-min Rain = 0
KPD4 141636Z 34003KT 31/22 A30 RMK A01 T03060216  RH  059%=      5-min Rain = 0
KPD4 141637Z 35002KT 31/21 A30 RMK A01 T03050214  RH  058%=      5-min Rain = 0
KPD4 141638Z 02001KT 31/21 A30 RMK A01 T03050213  RH  058%=      5-min Rain = 0
KPD4 141639Z 35001KT 31/22 A30 RMK A01 T03050217  RH  060%=      5-min Rain = 0
KPD4 141640Z 31001KT 31/22 A30 RMK A01 T03070216  RH  058%=      5-min Rain = 0
KPD4 141641Z 30003KT 31/21 A30 RMK A01 T03090212  RH  057%=      5-min Rain = 0
KPD4 141642Z 29003KT 31/21 A30 RMK A01 T03080214  RH  057%=      5-min Rain = 0
KPD4 141643Z 28003KT 31/21 A30 RMK A01 T03090213  RH  057%=      5-min Rain = 0
KPD4 141644Z 26002KT 31/22 A30 RMK A01 T03090215  RH  058%=      5-min Rain = 0
KPD4 141645Z 30001KT 31/22 A30 RMK A01 T03080218  RH  059%=      5-min Rain = 0
KPD4 141646Z 34001KT 31/21 A30 RMK A01 T03090213  RH  057%=      5-min Rain = 0
KPD4 141647Z 33002KT 31/21 A30 RMK A01 T03100212  RH  056%=      5-min Rain = 0
KPD4 141648Z 33002KT 31/21 A30 RMK A01 T03080210  RH  056%=      5-min Rain = 0
KPD4 141649Z 31000KT 31/21 A30 RMK A01 T03080210  RH  056%=      5-min Rain = 0
KPD4 141650Z 35001KT 31/21 A30 RMK A01 T03090210  RH  056%=      5-min Rain = 0
KPD4 141651Z 34002KT 31/21 A30 RMK A01 T03100208  RH  055%=      5-min Rain = 0
KPD4 141652Z 35001KT 31/21 A30 RMK A01 T03110209  RH  055%=      5-min Rain = 0
KPD4 141653Z 02001KT 31/21 A30 RMK A01 T03100209  RH  055%=      5-min Rain = 0
KPD4 141654Z 04001KT 31/21 A30 RMK A01 T03100209  RH  055%=      5-min Rain = 0
KPD4 141655Z 04001KT 31/21 A30 RMK A01 T03110210  RH  055%=      5-min Rain = 0
KPD4 141656Z 00000KT 31/21 A30 RMK A01 T03120207  RH  054%=      5-min Rain = 0
KPD4 141657Z 21001KT 31/21 A30 RMK A01 T03120211  RH  055%=      5-min Rain = 0
KPD4 141658Z 20003KT 31/22 A30 RMK A01 T03140218  RH  057%=      5-min Rain = 0
KPD4 141659Z 15003KT 32/22 A30 RMK A01 T03160220  RH  057%=      5-min Rain = 0
KPD4 141700Z 11003KT 32/22 A30 RMK A01 T03180216  RH  055%=      5-min Rain = 0
KPD4 141701Z 09004KT 32/22 A30 RMK A01 T03190216  RH  055%=      5-min Rain = 0
KPD4 141702Z 11002KT 32/22 A30 RMK A01 T03200217  RH  054%=      5-min Rain = 0
KPD4 141703Z 11002KT 32/22 A30 RMK A01 T03200216  RH  054%=      5-min Rain = 0
KPD4 141704Z 15001KT 32/21 A30 RMK A01 T03200214  RH  054%=      5-min Rain = 0
KPD4 141705Z 10004KT 32/22 A30 RMK A01 T03200216  RH  054%=      5-min Rain = 0
KPD4 141706Z 09004KT 32/21 A30 RMK A01 T03210212  RH  052%=      5-min Rain = 0
KPD4 141707Z 08003KT 32/21 A30 RMK A01 T03200212  RH  053%=      5-min Rain = 0
KPD4 141708Z 10004KT 32/21 A30 RMK A01 T03190214  RH  054%=      5-min Rain = 0
KPD4 141709Z 13004KT 32/21 A30 RMK A01 T03200213  RH  053%=      5-min Rain = 0
KPD4 141710Z 16004KT 32/21 A30 RMK A01 T03210212  RH  052%=      5-min Rain = 0
KPD4 141711Z 18002KT 32/21 A30 RMK A01 T03220211  RH  052%=      5-min Rain = 0
KPD4 141712Z 14003KT 32/21 A30 RMK A01 T03230207  RH  051%=      5-min Rain = 0
KPD4 141713Z 14003KT 33/21 A30 RMK A01 T03250211  RH  051%=      5-min Rain = 0
KPD4 141714Z 14004KT 33/21 A30 RMK A01 T03280213  RH  051%=      5-min Rain = 0
KPD4 141715Z 14002KT 33/21 A30 RMK A01 T03290208  RH  049%=      5-min Rain = 0
KPD4 141716Z 18003KT 33/21 A30 RMK A01 T03300210  RH  049%=      5-min Rain = 0
KPD4 141717Z 13003KT 33/21 A30 RMK A01 T03320205  RH  047%=      5-min Rain = 0
KPD4 141718Z 12003KT 33/21 A30 RMK A01 T03320205  RH  047%=      5-min Rain = 0
KPD4 141719Z 16000KT 33/20 A30 RMK A01 T03290204  RH  048%=      5-min Rain = 0
KPD4 141720Z 11001KT 33/21 A30 RMK A01 T03270205  RH  049%=      5-min Rain = 0
KPD4 141721Z 08002KT 33/20 A30 RMK A01 T03270198  RH  047%=      5-min Rain = 0
KPD4 141722Z 09003KT 33/21 A30 RMK A01 T03270205  RH  049%=      5-min Rain = 0
KPD4 141723Z 09004KT 33/21 A30 RMK A01 T03280205  RH  049%=      5-min Rain = 0
KPD4 141724Z 10003KT 33/21 A30 RMK A01 T03290206  RH  048%=      5-min Rain = 0
KPD4 141725Z 10004KT 33/20 A30 RMK A01 T03310204  RH  047%=      5-min Rain = 0
KPD4 141726Z 12003KT 33/20 A30 RMK A01 T03310204  RH  047%=      5-min Rain = 0
KPD4 141727Z 14003KT 33/21 A30 RMK A01 T03310206  RH  048%=      5-min Rain = 0
KPD4 141728Z 15004KT 33/21 A30 RMK A01 T03320206  RH  048%=      5-min Rain = 0
KPD4 141729Z 14005KT 33/21 A30 RMK A01 T03340206  RH  047%=      5-min Rain = 0
KPD4 141730Z 13003KT 34/20 A30 RMK A01 T03350203  RH  046%=      5-min Rain = 0
KPD4 141731Z 14004KT 34/21 A30 RMK A01 T03360207  RH  047%=      5-min Rain = 0
KPD4 141732Z 17002KT 34/20 A30 RMK A01 T03380203  RH  045%=      5-min Rain = 0
KPD4 141733Z 03001KT 34/20 A30 RMK A01 T03390202  RH  045%=      5-min Rain = 0
KPD4 141734Z 34000KT 34/20 A30 RMK A01 T03390203  RH  045%=      5-min Rain = 0
KPD4 141735Z 19002KT 34/20 A30 RMK A01 T03390201  RH  044%=      5-min Rain = 0
KPD4 141736Z 19003KT 34/19 A30 RMK A01 T03400193  RH  042%=      5-min Rain = 0
KPD4 141737Z 20003KT 34/20 A30 RMK A01 T03410200  RH  044%=      5-min Rain = 0
KPD4 141738Z 20003KT 34/20 A30 RMK A01 T03430195  RH  042%=      5-min Rain = 0
KPD4 141739Z 18002KT 34/20 A30 RMK A01 T03410199  RH  043%=      5-min Rain = 0
KPD4 141740Z 12003KT 34/20 A30 RMK A01 T03410201  RH  044%=      5-min Rain = 0
KPD4 141741Z 15004KT 34/20 A30 RMK A01 T03420198  RH  043%=      5-min Rain = 0
KPD4 141742Z 16003KT 34/20 A30 RMK A01 T03430195  RH  042%=      5-min Rain = 0
KPD4 141743Z 17003KT 34/20 A30 RMK A01 T03420196  RH  042%=      5-min Rain = 0
KPD4 141744Z 20002KT 34/19 A30 RMK A01 T03410193  RH  042%=      5-min Rain = 0
KPD4 141745Z 18002KT 34/20 A2999 RMK A01 T03390197  RH  043%=      5-min Rain = 0
KPD4 141746Z 10002KT 34/19 A2999 RMK A01 T03390193  RH  042%=      5-min Rain = 0
KPD4 141747Z 20001KT 34/19 A2999 RMK A01 T03400189  RH  041%=      5-min Rain = 0
KPD4 141748Z 11005KT 34/19 A2999 RMK A01 T03420189  RH  041%=      5-min Rain = 0
KPD4 141749Z 08004KT 34/18 A2999 RMK A01 T03440184  RH  039%=      5-min Rain = 0
KPD4 141750Z 11005KT 34/19 A2999 RMK A01 T03440189  RH  040%=      5-min Rain = 0
KPD4 141751Z 12005KT 35/19 A2999 RMK A01 T03470189  RH  039%=      5-min Rain = 0
KPD4 141752Z 10005KT 35/18 A2999 RMK A01 T03490184  RH  038%=      5-min Rain = 0
KPD4 141753Z 09003KT 35/18 A2999 RMK A01 T03480181  RH  037%=      5-min Rain = 0
KPD4 141754Z 10003KT 35/19 A2999 RMK A01 T03470186  RH  039%=      5-min Rain = 0
KPD4 141755Z 11004KT 35/19 A2999 RMK A01 T03470186  RH  039%=      5-min Rain = 0
KPD4 141756Z 12004KT 35/19 A2999 RMK A01 T03490189  RH  039%=      5-min Rain = 0
KPD4 141757Z 12006KT 35/19 A2999 RMK A01 T03530190  RH  038%=      5-min Rain = 0
KPD4 141758Z 12003KT 36/18 A2999 RMK A01 T03560182  RH  036%=      5-min Rain = 0
KPD4 141759Z 15003KT 35/18 A2999 RMK A01 T03530183  RH  037%=      5-min Rain = 0
KPD4 141800Z 17003KT 35/18 A2999 RMK A01 T03510183  RH  037%=      5-min Rain = 0
KPD4 141801Z 11003KT 35/18 A2999 RMK A01 T03510183  RH  037%=      5-min Rain = 0
KPD4 141802Z 12005KT 35/19 A2999 RMK A01 T03500186  RH  038%=      5-min Rain = 0
KPD4 141803Z 10005KT 35/19 A2999 RMK A01 T03510190  RH  039%=      5-min Rain = 0
KPD4 141804Z 06003KT 35/19 A2999 RMK A01 T03530185  RH  037%=      5-min Rain = 0
KPD4 141805Z 05003KT 35/19 A2999 RMK A01 T03520185  RH  037%=      5-min Rain = 0
KPD4 141806Z 11003KT 35/19 A2999 RMK A01 T03500189  RH  039%=      5-min Rain = 0
KPD4 141807Z 12002KT 35/18 A2999 RMK A01 T03530180  RH  036%=      5-min Rain = 0
KPD4 141808Z 13003KT 36/18 A2999 RMK A01 T03560183  RH  036%=      5-min Rain = 0
KPD4 141809Z 16003KT 36/18 A2999 RMK A01 T03580176  RH  034%=      5-min Rain = 0
KPD4 141810Z 17002KT 36/18 A2999 RMK A01 T03560179  RH  035%=      5-min Rain = 0
KPD4 141811Z 15001KT 36/18 A2999 RMK A01 T03560176  RH  035%=      5-min Rain = 0
KPD4 141812Z 00000KT 35/18 A2999 RMK A01 T03540175  RH  035%=      5-min Rain = 0
KPD4 141813Z 20002KT 35/18 A2999 RMK A01 T03540178  RH  035%=      5-min Rain = 0
KPD4 141814Z 20004KT 36/17 A2999 RMK A01 T03570169  RH  033%=      5-min Rain = 0
KPD4 141815Z 12005KT 36/18 A2999 RMK A01 T03600179  RH  034%=      5-min Rain = 0
KPD4 141816Z 15006KT 36/17 A2999 RMK A01 T03630167  RH  031%=      5-min Rain = 0
KPD4 141817Z 16007KT 36/16 A2999 RMK A01 T03630160  RH  030%=      5-min Rain = 0
KPD4 141818Z 15006KT 36/16 A2999 RMK A01 T03600156  RH  030%=      5-min Rain = 0
KPD4 141819Z 11002KT 36/16 A2999 RMK A01 T03570155  RH  030%=      5-min Rain = 0
KPD4 141820Z 16002KT 36/16 A2999 RMK A01 T03560156  RH  030%=      5-min Rain = 0
KPD4 141821Z 17004KT 36/16 A2999 RMK A01 T03570159  RH  031%=      5-min Rain = 0
KPD4 141822Z 12007KT 36/15 A2999 RMK A01 T03590154  RH  030%=      5-min Rain = 0
KPD4 141823Z 12005KT 36/15 A2999 RMK A01 T03590152  RH  029%=      5-min Rain = 0
KPD4 141824Z 13004KT 36/15 A2999 RMK A01 T03590151  RH  029%=      5-min Rain = 0
KPD4 141825Z 13005KT 36/15 A2999 RMK A01 T03590151  RH  029%=      5-min Rain = 0
KPD4 141826Z 12006KT 36/13 A2999 RMK A01 T03620134  RH  026%=      5-min Rain = 0
KPD4 141827Z 14007KT 36/15 A2999 RMK A01 T03630149  RH  028%=      5-min Rain = 0
KPD4 141828Z 13007KT 36/16 A2998 RMK A01 T03640158  RH  029%=      5-min Rain = 0
KPD4 141829Z 15006KT 37/15 A2998 RMK A01 T03660152  RH  028%=      5-min Rain = 0
KPD4 141830Z 17006KT 36/15 A2998 RMK A01 T03640149  RH  028%=      5-min Rain = 0
KPD4 141831Z 16004KT 36/15 A2998 RMK A01 T03630149  RH  028%=      5-min Rain = 0
KPD4 141832Z 16003KT 36/14 A2998 RMK A01 T03630143  RH  027%=      5-min Rain = 0
KPD4 141833Z 19002KT 36/14 A2998 RMK A01 T03620142  RH  027%=      5-min Rain = 0
KPD4 141834Z 11002KT 36/15 A2998 RMK A01 T03610149  RH  028%=      5-min Rain = 0
KPD4 141835Z 12004KT 36/15 A2998 RMK A01 T03610146  RH  028%=      5-min Rain = 0
KPD4 141836Z 12007KT 36/15 A2998 RMK A01 T03620147  RH  028%=      5-min Rain = 0
KPD4 141837Z 12010KT 37/14 A2998 RMK A01 T03650139  RH  026%=      5-min Rain = 0
KPD4 141838Z 12008KT 37/15 A2998 RMK A01 T03660145  RH  027%=      5-min Rain = 0
KPD4 141839Z 12010KT 37/15 A2998 RMK A01 T03650149  RH  028%=      5-min Rain = 0
KPD4 141840Z 12008KT 36/15 A2998 RMK A01 T03630148  RH  028%=      5-min Rain = 0
KPD4 141841Z 11007KT 36/15 A2998 RMK A01 T03630151  RH  028%=      5-min Rain = 0
KPD4 141842Z 11008KT 36/15 A2998 RMK A01 T03630151  RH  028%=      5-min Rain = 0
KPD4 141843Z 09007KT 36/15 A2998 RMK A01 T03620152  RH  029%=      5-min Rain = 0
KPD4 141844Z 09007KT 36/16 A2998 RMK A01 T03630155  RH  029%=      5-min Rain = 0
KPD4 141845Z 09006KT 36/15 A2998 RMK A01 T03640148  RH  028%=      5-min Rain = 0
KPD4 141846Z 13008KT 36/16 A2998 RMK A01 T03640156  RH  029%=      5-min Rain = 0
KPD4 141847Z 13008KT 37/16 A2998 RMK A01 T03660155  RH  029%=      5-min Rain = 0
KPD4 141848Z 14008KT 37/15 A2998 RMK A01 T03650152  RH  028%=      5-min Rain = 0
KPD4 141849Z 15007KT 36/16 A2998 RMK A01 T03630157  RH  030%=      5-min Rain = 0
KPD4 141850Z 14006KT 36/16 A2998 RMK A01 T03630159  RH  030%=      5-min Rain = 0
KPD4 141851Z 13006KT 37/17 A2998 RMK A01 T03670165  RH  030%=      5-min Rain = 0
KPD4 141852Z 13009KT 37/15 A2998 RMK A01 T03700153  RH  028%=      5-min Rain = 0
KPD4 141853Z 12010KT 37/15 A2998 RMK A01 T03710145  RH  026%=      5-min Rain = 0
KPD4 141854Z 12009KT 37/14 A2998 RMK A01 T03720141  RH  025%=      5-min Rain = 0
KPD4 141855Z 11009KT 37/14 A2998 RMK A01 T03710137  RH  025%=      5-min Rain = 0
KPD4 141856Z 09006KT 37/14 A2998 RMK A01 T03690137  RH  025%=      5-min Rain = 0
KPD4 141857Z 12008KT 37/14 A2998 RMK A01 T03660138  RH  026%=      5-min Rain = 0
KPD4 141858Z 13011KT 37/14 A2998 RMK A01 T03680136  RH  025%=      5-min Rain = 0
KPD4 141859Z 13006KT 37/14 A2998 RMK A01 T03680137  RH  025%=      5-min Rain = 0
KPD4 141900Z 12006KT 37/14 A2998 RMK A01 T03650141  RH  026%=      5-min Rain = 0
KPD4 141901Z 13008KT 37/14 A2998 RMK A01 T03670135  RH  025%=      5-min Rain = 0
KPD4 141902Z 13007KT 37/13 A2998 RMK A01 T03680132  RH  024%=      5-min Rain = 0
KPD4 141903Z 13007KT 37/14 A2998 RMK A01 T03690138  RH  025%=      5-min Rain = 0
KPD4 141904Z 14008KT 37/13 A2998 RMK A01 T03690128  RH  024%=      5-min Rain = 0
KPD4 141905Z 15009KT 37/14 A2998 RMK A01 T03680138  RH  025%=      5-min Rain = 0
KPD4 141906Z 15008KT 37/15 A2998 RMK A01 T03680151  RH  028%=      5-min Rain = 0
KPD4 141907Z 14007KT 37/15 A2998 RMK A01 T03660146  RH  027%=      5-min Rain = 0
KPD4 141908Z 15005KT 37/13 A2998 RMK A01 T03660125  RH  024%=      5-min Rain = 0
KPD4 141909Z 15004KT 37/13 A2998 RMK A01 T03660125  RH  024%=      5-min Rain = 0
KPD4 141910Z 15006KT 37/12 A2998 RMK A01 T03670123  RH  023%=      5-min Rain = 0
KPD4 141911Z 15006KT 37/12 A2998 RMK A01 T03680118  RH  022%=      5-min Rain = 0
KPD4 141912Z 15005KT 37/11 A2998 RMK A01 T03680114  RH  022%=      5-min Rain = 0
KPD4 141913Z 17005KT 37/12 A2998 RMK A01 T03680117  RH  022%=      5-min Rain = 0
KPD4 141914Z 15005KT 37/12 A2998 RMK A01 T03690122  RH  023%=      5-min Rain = 0
KPD4 141915Z 15007KT 37/11 A2998 RMK A01 T03710113  RH  021%=      5-min Rain = 0
KPD4 141916Z 16004KT 37/13 A2998 RMK A01 T03730127  RH  023%=      5-min Rain = 0
KPD4 141917Z 16008KT 37/13 A2998 RMK A01 T03730130  RH  023%=      5-min Rain = 0
KPD4 141918Z 15009KT 37/13 A2998 RMK A01 T03730131  RH  024%=      5-min Rain = 0
KPD4 141919Z 14010KT 37/13 A2998 RMK A01 T03710126  RH  023%=      5-min Rain = 0
KPD4 141920Z 15012KT 37/13 A2998 RMK A01 T03710127  RH  023%=      5-min Rain = 0
KPD4 141921Z 14010KT 37/13 A2998 RMK A01 T03720130  RH  024%=      5-min Rain = 0
KPD4 141922Z 14008KT 37/13 A2998 RMK A01 T03730127  RH  023%=      5-min Rain = 0
KPD4 141923Z 13010KT 37/12 A2998 RMK A01 T03730116  RH  021%=      5-min Rain = 0
KPD4 141924Z 14013KT 37/11 A2998 RMK A01 T03730109  RH  020%=      5-min Rain = 0
KPD4 141925Z 13011KT 37/12 A2998 RMK A01 T03720116  RH  021%=      5-min Rain = 0
KPD4 141926Z 14010KT 37/12 A2998 RMK A01 T03730124  RH  022%=      5-min Rain = 0
KPD4 141927Z 13011KT 37/12 A2998 RMK A01 T03740116  RH  021%=      5-min Rain = 0
KPD4 141928Z 13009KT 37/11 A2998 RMK A01 T03730108  RH  020%=      5-min Rain = 0
KPD4 141929Z 13008KT 37/11 A2998 RMK A01 T03720114  RH  021%=      5-min Rain = 0
KPD4 141930Z 13010KT 38/11 A2998 RMK A01 T03750114  RH  021%=      5-min Rain = 0
KPD4 141931Z 13011KT 38/11 A2998 RMK A01 T03780107  RH  020%=      5-min Rain = 0
KPD4 141932Z 14009KT 38/10 A2998 RMK A01 T03790102  RH  019%=      5-min Rain = 0
KPD4 141933Z 14007KT 38/10 A2997 RMK A01 T03760095  RH  018%=      5-min Rain = 0
KPD4 141934Z 15011KT 38/10 A2997 RMK A01 T03750099  RH  019%=      5-min Rain = 0
KPD4 141935Z 14009KT 38/07 A2998 RMK A01 T03760068  RH  015%=      5-min Rain = 0
KPD4 141936Z 13010KT 38/08 A2998 RMK A01 T03770082  RH  017%=      5-min Rain = 0
KPD4 141937Z 13012KT 38/07 A2998 RMK A01 T03790073  RH  015%=      5-min Rain = 0
KPD4 141938Z 14010KT 38/08 A2998 RMK A01 T03780083  RH  017%=      5-min Rain = 0
KPD4 141939Z 12010KT 38/09 A2997 RMK A01 T03770093  RH  018%=      5-min Rain = 0
KPD4 141940Z 12010KT 38/09 A2997 RMK A01 T03790088  RH  017%=      5-min Rain = 0
KPD4 141941Z 12008KT 38/08 A2997 RMK A01 T03770078  RH  016%=      5-min Rain = 0
KPD4 141942Z 13007KT 38/09 A2997 RMK A01 T03750091  RH  018%=      5-min Rain = 0
KPD4 141943Z 13008KT 38/09 A2997 RMK A01 T03760087  RH  017%=      5-min Rain = 0
KPD4 141944Z 12010KT 38/08 A2997 RMK A01 T03770080  RH  016%=      5-min Rain = 0
KPD4 141945Z 13009KT 38/10 A2997 RMK A01 T03760095  RH  018%=      5-min Rain = 0
KPD4 141946Z 12011KT 38/11 A2997 RMK A01 T03760111  RH  020%=      5-min Rain = 0
KPD4 141947Z 12012KT 38/12 A2997 RMK A01 T03760119  RH  021%=      5-min Rain = 0
KPD4 141948Z 12011KT 38/12 A2997 RMK A01 T03750119  RH  022%=      5-min Rain = 0
KPD4 141949Z 13008KT 37/12 A2997 RMK A01 T03740121  RH  022%=      5-min Rain = 0
KPD4 141950Z 15009KT 37/12 A2997 RMK A01 T03740121  RH  022%=      5-min Rain = 0
KPD4 141951Z 14008KT 37/12 A2997 RMK A01 T03740119  RH  022%=      5-min Rain = 0
KPD4 141952Z 14007KT 37/12 A2997 RMK A01 T03730119  RH  022%=      5-min Rain = 0
KPD4 141953Z 14007KT 37/13 A2997 RMK A01 T03730129  RH  023%=      5-min Rain = 0
KPD4 141954Z 14010KT 38/14 A2997 RMK A01 T03750139  RH  025%=      5-min Rain = 0
KPD4 141955Z 16007KT 38/13 A2997 RMK A01 T03750134  RH  024%=      5-min Rain = 0
KPD4 141956Z 13008KT 37/16 A2997 RMK A01 T03730155  RH  028%=      5-min Rain = 0
KPD4 141957Z 12011KT 37/17 A2997 RMK A01 T03730168  RH  030%=      5-min Rain = 0
KPD4 141958Z 13010KT 38/17 A2997 RMK A01 T03750166  RH  029%=      5-min Rain = 0
KPD4 141959Z 12013KT 38/16 A2997 RMK A01 T03760164  RH  029%=      5-min Rain = 0
KPD4 142000Z 13012KT 37/16 A2997 RMK A01 T03720161  RH  029%=      5-min Rain = 0
KPD4 142001Z 12009KT 37/17 A2997 RMK A01 T03700165  RH  030%=      5-min Rain = 0
KPD4 142002Z 13012KT 37/16 A2997 RMK A01 T03710164  RH  030%=      5-min Rain = 0
KPD4 142003Z 13012KT 37/17 A2997 RMK A01 T03710165  RH  030%=      5-min Rain = 0
KPD4 142004Z 13010KT 37/17 A2997 RMK A01 T03700165  RH  030%=      5-min Rain = 0
KPD4 142005Z 13011KT 37/17 A2997 RMK A01 T03690166  RH  030%=      5-min Rain = 0
KPD4 142006Z 14011KT 37/18 A2997 RMK A01 T03690175  RH  032%=      5-min Rain = 0
KPD4 142007Z 14009KT 37/18 A2997 RMK A01 T03740177  RH  032%=      5-min Rain = 0
KPD4 142008Z 14012KT 38/17 A2997 RMK A01 T03760173  RH  030%=      5-min Rain = 0
KPD4 142009Z 14013KT 37/17 A2997 RMK A01 T03740173  RH  031%=      5-min Rain = 0
KPD4 142010Z 14013KT 37/17 A2997 RMK A01 T03730172  RH  031%=      5-min Rain = 0
KPD4 142011Z 14013KT 37/17 A2996 RMK A01 T03720173  RH  031%=      5-min Rain = 0
KPD4 142012Z 15009KT 37/17 A2996 RMK A01 T03700171  RH  031%=      5-min Rain = 0
KPD4 142013Z 13010KT 37/17 A2996 RMK A01 T03690173  RH  032%=      5-min Rain = 0
KPD4 142014Z 14014KT 37/18 A2996 RMK A01 T03700177  RH  032%=      5-min Rain = 0
KPD4 142015Z 14011KT 37/18 A2996 RMK A01 T03700175  RH  032%=      5-min Rain = 0
KPD4 142016Z 13011KT 37/18 A2996 RMK A01 T03700180  RH  033%=      5-min Rain = 0
KPD4 142017Z 13012KT 37/18 A2996 RMK A01 T03700182  RH  033%=      5-min Rain = 0
KPD4 142018Z 14014KT 37/18 A2996 RMK A01 T03720182  RH  033%=      5-min Rain = 0
KPD4 142019Z 14013KT 37/18 A2996 RMK A01 T03710181  RH  033%=      5-min Rain = 0
KPD4 142020Z 13010KT 37/18 A2996 RMK A01 T03700184  RH  034%=      5-min Rain = 0
KPD4 142021Z 14007KT 37/18 A2996 RMK A01 T03700181  RH  033%=      5-min Rain = 0
KPD4 142022Z 16007KT 37/18 A2996 RMK A01 T03680182  RH  034%=      5-min Rain = 0
KPD4 142023Z 14006KT 37/18 A2996 RMK A01 T03670183  RH  034%=      5-min Rain = 0
KPD4 142024Z 13008G13KT 37/19 A2996 RMK A01 T03670188  RH  035%=      5-min Rain = 0
KPD4 142025Z 12014KT 37/19 A2996 RMK A01 T03700187  RH  034%=      5-min Rain = 0
KPD4 142026Z 12008KT 37/18 A2996 RMK A01 T03710180  RH  033%=      5-min Rain = 0
KPD4 142027Z 12007KT 37/19 A2996 RMK A01 T03680186  RH  034%=      5-min Rain = 0
KPD4 142028Z 14011KT 37/18 A2996 RMK A01 T03690184  RH  034%=      5-min Rain = 0
KPD4 142029Z 12011KT 37/19 A2995 RMK A01 T03700185  RH  034%=      5-min Rain = 0
KPD4 142030Z 13014KT 37/19 A2995 RMK A01 T03700185  RH  034%=      5-min Rain = 0
KPD4 142031Z 12014KT 37/18 A2995 RMK A01 T03710179  RH  033%=      5-min Rain = 0
KPD4 142032Z 13011KT 37/18 A2996 RMK A01 T03700180  RH  033%=      5-min Rain = 0
KPD4 142033Z 15012KT 37/18 A2995 RMK A01 T03710176  RH  032%=      5-min Rain = 0
KPD4 142034Z 15011KT 37/17 A2995 RMK A01 T03710171  RH  031%=      5-min Rain = 0
KPD4 142035Z 13014KT 37/18 A2995 RMK A01 T03700179  RH  033%=      5-min Rain = 0
KPD4 142036Z 13013KT 37/18 A2995 RMK A01 T03690182  RH  033%=      5-min Rain = 0
KPD4 142037Z 12009KT 37/18 A2995 RMK A01 T03700179  RH  033%=      5-min Rain = 0
KPD4 142038Z 12008KT 37/18 A2995 RMK A01 T03700180  RH  033%=      5-min Rain = 0
KPD4 142039Z 13009KT 37/18 A2995 RMK A01 T03690180  RH  033%=      5-min Rain = 0
KPD4 142040Z 15014KT 37/18 A2995 RMK A01 T03680177  RH  033%=      5-min Rain = 0
KPD4 142041Z 16013KT 37/17 A2995 RMK A01 T03700171  RH  031%=      5-min Rain = 0
KPD4 142042Z 15011KT 37/17 A2995 RMK A01 T03740167  RH  030%=      5-min Rain = 0
KPD4 142043Z 16010KT 38/17 A2995 RMK A01 T03750165  RH  029%=      5-min Rain = 0
KPD4 142044Z 15010KT 37/17 A2995 RMK A01 T03730169  RH  030%=      5-min Rain = 0
KPD4 142045Z 13013KT 37/17 A2995 RMK A01 T03720168  RH  030%=      5-min Rain = 0
KPD4 142046Z 13012KT 37/17 A2995 RMK A01 T03720165  RH  030%=      5-min Rain = 0
KPD4 142047Z 13010KT 37/17 A2995 RMK A01 T03700169  RH  031%=      5-min Rain = 0
KPD4 142048Z 12010KT 37/18 A2995 RMK A01 T03740175  RH  031%=      5-min Rain = 0
KPD4 142049Z 12014KT 38/16 A2994 RMK A01 T03780164  RH  028%=      5-min Rain = 0
KPD4 142050Z 12012KT 38/16 A2994 RMK A01 T03750158  RH  028%=      5-min Rain = 0
KPD4 142051Z 12009KT 37/16 A2994 RMK A01 T03720160  RH  029%=      5-min Rain = 0
KPD4 142052Z 13013KT 37/16 A2994 RMK A01 T03720160  RH  029%=      5-min Rain = 0
KPD4 142053Z 12014KT 37/16 A2994 RMK A01 T03720159  RH  028%=      5-min Rain = 0
KPD4 142054Z 12015KT 37/16 A2994 RMK A01 T03730159  RH  028%=      5-min Rain = 0
KPD4 142055Z 12012KT 37/16 A2994 RMK A01 T03720157  RH  028%=      5-min Rain = 0
KPD4 142056Z 12012KT 37/16 A2994 RMK A01 T03720160  RH  029%=      5-min Rain = 0
KPD4 142057Z 13011KT 37/16 A2994 RMK A01 T03740157  RH  028%=      5-min Rain = 0
KPD4 142058Z 12012KT 37/16 A2994 RMK A01 T03730160  RH  028%=      5-min Rain = 0
KPD4 142059Z 13014KT 37/15 A2994 RMK A01 T03730154  RH  027%=      5-min Rain = 0
KPD4 142100Z 12012KT 37/15 A2994 RMK A01 T03730149  RH  027%=      5-min Rain = 0
KPD4 142101Z 11012KT 37/15 A2994 RMK A01 T03720151  RH  027%=      5-min Rain = 0
KPD4 142102Z 12012KT 37/15 A2994 RMK A01 T03720147  RH  026%=      5-min Rain = 0
KPD4 142103Z 13010KT 37/15 A2994 RMK A01 T03710152  RH  027%=      5-min Rain = 0
KPD4 142104Z 13011KT 37/16 A2994 RMK A01 T03730155  RH  028%=      5-min Rain = 0
KPD4 142105Z 12010KT 38/15 A2994 RMK A01 T03760149  RH  026%=      5-min Rain = 0
KPD4 142106Z 12011KT 38/15 A2994 RMK A01 T03760151  RH  026%=      5-min Rain = 0
KPD4 142107Z 12009KT 38/15 A2994 RMK A01 T03750147  RH  026%=      5-min Rain = 0
KPD4 142108Z 13010KT 38/15 A2994 RMK A01 T03750146  RH  026%=      5-min Rain = 0
KPD4 142109Z 13010KT 37/15 A2993 RMK A01 T03740148  RH  026%=      5-min Rain = 0
KPD4 142110Z 12015KT 38/15 A2993 RMK A01 T03750146  RH  026%=      5-min Rain = 0
KPD4 142111Z 13011KT 37/14 A2994 RMK A01 T03740144  RH  026%=      5-min Rain = 0
KPD4 142112Z 14013KT 37/14 A2994 RMK A01 T03730142  RH  025%=      5-min Rain = 0
KPD4 142113Z 15013KT 37/14 A2993 RMK A01 T03730137  RH  024%=      5-min Rain = 0
KPD4 142114Z 14011KT 37/14 A2993 RMK A01 T03740138  RH  024%=      5-min Rain = 0
KPD4 142115Z 12010KT 37/14 A2993 RMK A01 T03740138  RH  025%=      5-min Rain = 0
KPD4 142116Z 13012KT 38/14 A2993 RMK A01 T03750142  RH  025%=      5-min Rain = 0
KPD4 142117Z 12010KT 38/15 A2993 RMK A01 T03760147  RH  026%=      5-min Rain = 0
KPD4 142118Z 11013KT 38/14 A2993 RMK A01 T03770142  RH  025%=      5-min Rain = 0
KPD4 142119Z 12014KT 38/14 A2993 RMK A01 T03750137  RH  024%=      5-min Rain = 0
KPD4 142120Z 12011KT 38/14 A2993 RMK A01 T03750141  RH  025%=      5-min Rain = 0
KPD4 142121Z 12013KT 38/14 A2993 RMK A01 T03750143  RH  025%=      5-min Rain = 0
KPD4 142122Z 13011KT 37/14 A2993 RMK A01 T03740144  RH  026%=      5-min Rain = 0
KPD4 142123Z 13012KT 37/15 A2993 RMK A01 T03730147  RH  026%=      5-min Rain = 0
KPD4 142124Z 12009KT 37/15 A2993 RMK A01 T03720150  RH  027%=      5-min Rain = 0
KPD4 142125Z 14008KT 37/15 A2993 RMK A01 T03730153  RH  027%=      5-min Rain = 0
KPD4 142126Z 14009KT 38/16 A2993 RMK A01 T03760155  RH  027%=      5-min Rain = 0
KPD4 142127Z 14009KT 38/16 A2993 RMK A01 T03750157  RH  028%=      5-min Rain = 0
KPD4 142128Z 14012KT 38/16 A2993 RMK A01 T03760155  RH  027%=      5-min Rain = 0
KPD4 142129Z 14008KT 38/15 A2993 RMK A01 T03750152  RH  027%=      5-min Rain = 0
KPD4 142130Z 12008KT 37/16 A2993 RMK A01 T03740160  RH  028%=      5-min Rain = 0
KPD4 142131Z 11009KT 38/16 A2993 RMK A01 T03760161  RH  028%=      5-min Rain = 0
KPD4 142132Z 12010KT 38/16 A2993 RMK A01 T03780156  RH  027%=      5-min Rain = 0
KPD4 142133Z 12012KT 38/16 A2993 RMK A01 T03770158  RH  028%=      5-min Rain = 0
KPD4 142134Z 11012KT 38/16 A2993 RMK A01 T03770159  RH  028%=      5-min Rain = 0
KPD4 142135Z 10012KT 38/16 A2992 RMK A01 T03770156  RH  027%=      5-min Rain = 0
KPD4 142136Z 11011KT 38/16 A2992 RMK A01 T03760155  RH  027%=      5-min Rain = 0
KPD4 142137Z 12008KT 37/16 A2992 RMK A01 T03740156  RH  028%=      5-min Rain = 0
KPD4 142138Z 11012KT 37/16 A2992 RMK A01 T03740160  RH  028%=      5-min Rain = 0
KPD4 142139Z 11011KT 38/16 A2992 RMK A01 T03750155  RH  027%=      5-min Rain = 0
KPD4 142140Z 12011KT 38/16 A2992 RMK A01 T03750157  RH  028%=      5-min Rain = 0
KPD4 142141Z 13013KT 37/16 A2992 RMK A01 T03730156  RH  028%=      5-min Rain = 0
KPD4 142142Z 13010KT 37/16 A2992 RMK A01 T03730160  RH  029%=      5-min Rain = 0
KPD4 142143Z 12012KT 37/16 A2992 RMK A01 T03730164  RH  029%=      5-min Rain = 0
KPD4 142144Z 11012KT 38/16 A2992 RMK A01 T03750163  RH  029%=      5-min Rain = 0
KPD4 142145Z 12011KT 38/16 A2992 RMK A01 T03750163  RH  029%=      5-min Rain = 0
KPD4 142146Z 12013KT 38/17 A2992 RMK A01 T03750165  RH  029%=      5-min Rain = 0
KPD4 142147Z 12013KT 38/16 A2992 RMK A01 T03750158  RH  028%=      5-min Rain = 0
KPD4 142148Z 12012KT 37/16 A2992 RMK A01 T03720158  RH  028%=      5-min Rain = 0
KPD4 142149Z 11011KT 37/16 A2992 RMK A01 T03720161  RH  029%=      5-min Rain = 0
KPD4 142150Z 12008KT 37/16 A2992 RMK A01 T03730161  RH  029%=      5-min Rain = 0
KPD4 142151Z 13010KT 37/17 A2992 RMK A01 T03730166  RH  030%=      5-min Rain = 0
KPD4 142152Z 14011KT 37/17 A2992 RMK A01 T03740169  RH  030%=      5-min Rain = 0
KPD4 142153Z 14010KT 38/16 A2992 RMK A01 T03760162  RH  029%=      5-min Rain = 0
KPD4 142154Z 13012KT 38/17 A2992 RMK A01 T03760167  RH  029%=      5-min Rain = 0
KPD4 142155Z 13011KT 38/17 A2992 RMK A01 T03760166  RH  029%=      5-min Rain = 0
KPD4 142156Z 15010KT 38/17 A2992 RMK A01 T03750170  RH  030%=      5-min Rain = 0
KPD4 142157Z 13010KT 38/17 A2992 RMK A01 T03770169  RH  030%=      5-min Rain = 0
KPD4 142158Z 12012KT 38/17 A2992 RMK A01 T03780168  RH  029%=      5-min Rain = 0
KPD4 142159Z 12013KT 38/17 A2992 RMK A01 T03750166  RH  029%=      5-min Rain = 0
KPD4 142200Z 12012KT 37/16 A2992 RMK A01 T03710164  RH  030%=      5-min Rain = 0
KPD4 142201Z 13010KT 37/16 A2992 RMK A01 T03660163  RH  030%=      5-min Rain = 0
KPD4 142202Z 12010KT 36/17 A2992 RMK A01 T03630168  RH  032%=      5-min Rain = 0
KPD4 142203Z 12011KT 36/16 A2992 RMK A01 T03600163  RH  031%=      5-min Rain = 0
KPD4 142204Z 13008KT 36/17 A2992 RMK A01 T03590165  RH  032%=      5-min Rain = 0
KPD4 142205Z 13013KT 36/17 A2992 RMK A01 T03580167  RH  032%=      5-min Rain = 0
KPD4 142206Z 14013KT 36/17 A2992 RMK A01 T03570167  RH  033%=      5-min Rain = 0
KPD4 142207Z 15012KT 36/17 A2992 RMK A01 T03560166  RH  032%=      5-min Rain = 0
KPD4 142208Z 15010KT 36/17 A2992 RMK A01 T03550165  RH  032%=      5-min Rain = 0
KPD4 142209Z 13010KT 36/17 A2992 RMK A01 T03550167  RH  033%=      5-min Rain = 0
KPD4 142210Z 12011KT 35/17 A2992 RMK A01 T03540171  RH  034%=      5-min Rain = 0
KPD4 142211Z 12010KT 35/17 A2992 RMK A01 T03530172  RH  034%=      5-min Rain = 0
KPD4 142212Z 12009KT 35/17 A2992 RMK A01 T03530173  RH  035%=      5-min Rain = 0
KPD4 142213Z 13009KT 35/18 A2992 RMK A01 T03520175  RH  035%=      5-min Rain = 0
KPD4 142214Z 12010KT 35/18 A2992 RMK A01 T03520175  RH  035%=      5-min Rain = 0
KPD4 142215Z 13009KT 35/18 A2992 RMK A01 T03520177  RH  036%=      5-min Rain = 0
KPD4 142216Z 12009KT 35/18 A2992 RMK A01 T03520178  RH  036%=      5-min Rain = 0
KPD4 142217Z 11009KT 35/18 A2992 RMK A01 T03520178  RH  036%=      5-min Rain = 0
KPD4 142218Z 12011KT 35/18 A2992 RMK A01 T03530175  RH  035%=      5-min Rain = 0
KPD4 142219Z 13010KT 35/18 A2992 RMK A01 T03540177  RH  035%=      5-min Rain = 0
KPD4 142220Z 13010KT 35/18 A2992 RMK A01 T03540181  RH  036%=      5-min Rain = 0
KPD4 142221Z 13010KT 36/18 A2992 RMK A01 T03550180  RH  036%=      5-min Rain = 0
KPD4 142222Z 12011KT 36/18 A2992 RMK A01 T03560176  RH  035%=      5-min Rain = 0
KPD4 142223Z 12011KT 36/18 A2992 RMK A01 T03560179  RH  035%=      5-min Rain = 0
KPD4 142224Z 12010KT 36/18 A2992 RMK A01 T03560179  RH  035%=      5-min Rain = 0
KPD4 142225Z 12012KT 36/18 A2992 RMK A01 T03570177  RH  035%=      5-min Rain = 0
KPD4 142226Z 12012KT 36/18 A2992 RMK A01 T03580175  RH  034%=      5-min Rain = 0
KPD4 142227Z 13012KT 36/18 A2992 RMK A01 T03580176  RH  034%=      5-min Rain = 0
KPD4 142228Z 13010KT 36/18 A2992 RMK A01 T03570178  RH  035%=      5-min Rain = 0
KPD4 142229Z 13010KT 36/18 A2992 RMK A01 T03580182  RH  036%=      5-min Rain = 0
KPD4 142230Z 13009KT 36/18 A2992 RMK A01 T03580181  RH  035%=      5-min Rain = 0
KPD4 142231Z 12011KT 36/18 A2991 RMK A01 T03580180  RH  035%=      5-min Rain = 0
KPD4 142232Z 12012KT 36/18 A2991 RMK A01 T03580177  RH  035%=      5-min Rain = 0
KPD4 142233Z 12013KT 36/18 A2991 RMK A01 T03580180  RH  035%=      5-min Rain = 0
KPD4 142234Z 12013KT 36/18 A2991 RMK A01 T03580176  RH  034%=      5-min Rain = 0
KPD4 142235Z 12014KT 36/18 A2991 RMK A01 T03590178  RH  034%=      5-min Rain = 0
KPD4 142236Z 12014KT 36/18 A2991 RMK A01 T03590179  RH  035%=      5-min Rain = 0
KPD4 142237Z 12015KT 36/18 A2991 RMK A01 T03600177  RH  034%=      5-min Rain = 0
KPD4 142238Z 12011KT 36/18 A2991 RMK A01 T03600181  RH  035%=      5-min Rain = 0
KPD4 142239Z 12011KT 36/18 A2991 RMK A01 T03600182  RH  035%=      5-min Rain = 0
KPD4 142240Z 12013KT 36/18 A2991 RMK A01 T03600182  RH  035%=      5-min Rain = 0
KPD4 142241Z 14012KT 36/18 A2991 RMK A01 T03600181  RH  035%=      5-min Rain = 0
KPD4 142242Z 14014KT 36/18 A2991 RMK A01 T03590181  RH  035%=      5-min Rain = 0
KPD4 142243Z 13012KT 36/18 A2991 RMK A01 T03590179  RH  035%=      5-min Rain = 0
KPD4 142244Z 12013KT 36/18 A2991 RMK A01 T03590181  RH  035%=      5-min Rain = 0
KPD4 142245Z 12011KT 36/18 A2991 RMK A01 T03580182  RH  035%=      5-min Rain = 0
KPD4 142246Z 12010KT 36/18 A2991 RMK A01 T03570184  RH  036%=      5-min Rain = 0
KPD4 142247Z 13011KT 36/18 A2991 RMK A01 T03560184  RH  036%=      5-min Rain = 0
KPD4 142248Z 12010KT 36/18 A2991 RMK A01 T03560183  RH  036%=      5-min Rain = 0
KPD4 142249Z 12010KT 36/18 A2991 RMK A01 T03560183  RH  036%=      5-min Rain = 0
KPD4 142250Z 11013KT 36/18 A2991 RMK A01 T03570180  RH  035%=      5-min Rain = 0
KPD4 142251Z 12012KT 36/18 A2991 RMK A01 T03580178  RH  035%=      5-min Rain = 0
KPD4 142252Z 12015KT 36/18 A299 RMK A01 T03590177  RH  034%=      5-min Rain = 0
KPD4 142253Z 11014KT 36/18 A299 RMK A01 T03590176  RH  034%=      5-min Rain = 0
KPD4 142254Z 12016KT 36/18 A299 RMK A01 T03590176  RH  034%=      5-min Rain = 0
KPD4 142255Z 12012KT 36/18 A2991 RMK A01 T03580178  RH  035%=      5-min Rain = 0
KPD4 142256Z 12014KT 36/18 A2991 RMK A01 T03570180  RH  035%=      5-min Rain = 0
KPD4 142257Z 12014KT 36/18 A2991 RMK A01 T03550179  RH  035%=      5-min Rain = 0
KPD4 142258Z 12010G15KT 35/18 A2991 RMK A01 T03530179  RH  036%=      5-min Rain = 0
KPD4 142259Z 12012KT 35/18 A2991 RMK A01 T03520182  RH  037%=      5-min Rain = 0
KPD4 142300Z 13012KT 35/18 A2991 RMK A01 T03510180  RH  036%=      5-min Rain = 0
KPD4 142301Z 12010KT 35/18 A2991 RMK A01 T03500181  RH  037%=      5-min Rain = 0
KPD4 142302Z 13012KT 35/18 A2991 RMK A01 T03490182  RH  037%=      5-min Rain = 0
KPD4 142303Z 12014KT 35/18 A2991 RMK A01 T03480179  RH  037%=      5-min Rain = 0
KPD4 142304Z 12015KT 35/18 A2991 RMK A01 T03490179  RH  037%=      5-min Rain = 0
KPD4 142305Z 13012KT 35/18 A2991 RMK A01 T03490180  RH  037%=      5-min Rain = 0
KPD4 142306Z 12015KT 35/18 A2991 RMK A01 T03490180  RH  037%=      5-min Rain = 0
KPD4 142307Z 12017KT 35/18 A2991 RMK A01 T03490180  RH  037%=      5-min Rain = 0
KPD4 142308Z 11014KT 35/18 A2991 RMK A01 T03490179  RH  037%=      5-min Rain = 0
KPD4 142309Z 11015KT 35/18 A2991 RMK A01 T03490179  RH  037%=      5-min Rain = 0
KPD4 142310Z 11014KT 35/18 A2992 RMK A01 T03490179  RH  037%=      5-min Rain = 0
KPD4 142311Z 11011KT 35/18 A2992 RMK A01 T03490180  RH  037%=      5-min Rain = 0
KPD4 142312Z 11012KT 35/18 A2992 RMK A01 T03490181  RH  037%=      5-min Rain = 0
KPD4 142313Z 11012KT 35/18 A2992 RMK A01 T03490181  RH  037%=      5-min Rain = 0
KPD4 142314Z 12012KT 35/18 A2992 RMK A01 T03490179  RH  037%=      5-min Rain = 0
KPD4 142315Z 11015KT 35/18 A2992 RMK A01 T03490178  RH  036%=      5-min Rain = 0
KPD4 142316Z 11013KT 35/18 A2992 RMK A01 T03490177  RH  036%=      5-min Rain = 0
KPD4 142317Z 11012KT 35/18 A2992 RMK A01 T03490177  RH  036%=      5-min Rain = 0
KPD4 142318Z 11011KT 35/18 A2993 RMK A01 T03490177  RH  036%=      5-min Rain = 0
KPD4 142319Z 12010KT 35/18 A2993 RMK A01 T03490179  RH  037%=      5-min Rain = 0
KPD4 142320Z 12011KT 35/18 A2993 RMK A01 T03490179  RH  037%=      5-min Rain = 0
KPD4 142321Z 12014KT 35/18 A2993 RMK A01 T03480176  RH  036%=      5-min Rain = 0
KPD4 142322Z 11012KT 35/18 A2993 RMK A01 T03480176  RH  036%=      5-min Rain = 0
KPD4 142323Z 12013KT 35/18 A2993 RMK A01 T03480176  RH  036%=      5-min Rain = 0
KPD4 142324Z 11014KT 35/18 A2993 RMK A01 T03480176  RH  036%=      5-min Rain = 0
KPD4 142325Z 11014KT 35/17 A2993 RMK A01 T03480174  RH  036%=      5-min Rain = 0
KPD4 142326Z 12013KT 35/17 A2993 RMK A01 T03480172  RH  035%=      5-min Rain = 0
KPD4 142327Z 12011KT 35/17 A2993 RMK A01 T03480172  RH  035%=      5-min Rain = 0
KPD4 142328Z 12012KT 35/17 A2993 RMK A01 T03480173  RH  035%=      5-min Rain = 0
KPD4 142329Z 12011KT 35/17 A2993 RMK A01 T03470172  RH  035%=      5-min Rain = 0
KPD4 142330Z 12010KT 35/17 A2993 RMK A01 T03470173  RH  036%=      5-min Rain = 0
KPD4 142331Z 12010KT 35/17 A2993 RMK A01 T03460173  RH  036%=      5-min Rain = 0
KPD4 142332Z 11010KT 35/17 A2993 RMK A01 T03450174  RH  036%=      5-min Rain = 0
KPD4 142333Z 11010KT 35/17 A2993 RMK A01 T03450174  RH  036%=      5-min Rain = 0
KPD4 142334Z 12011KT 34/17 A2993 RMK A01 T03440173  RH  036%=      5-min Rain = 0
KPD4 142335Z 12014KT 34/17 A2993 RMK A01 T03440171  RH  036%=      5-min Rain = 0
KPD4 142336Z 12016KT 35/17 A2993 RMK A01 T03450171  RH  036%=      5-min Rain = 0
KPD4 142337Z 12015KT 35/17 A2993 RMK A01 T03460171  RH  035%=      5-min Rain = 0
KPD4 142338Z 12013KT 35/17 A2993 RMK A01 T03460171  RH  035%=      5-min Rain = 0
KPD4 142339Z 12012KT 35/17 A2993 RMK A01 T03460173  RH  036%=      5-min Rain = 0
KPD4 142340Z 12011KT 35/18 A2993 RMK A01 T03460175  RH  036%=      5-min Rain = 0
KPD4 142341Z 12010KT 35/18 A2993 RMK A01 T03450176  RH  037%=      5-min Rain = 0
KPD4 142342Z 11011KT 34/18 A2993 RMK A01 T03440176  RH  037%=      5-min Rain = 0
KPD4 142343Z 11009KT 34/18 A2993 RMK A01 T03440176  RH  037%=      5-min Rain = 0
KPD4 142344Z 11009KT 34/18 A2993 RMK A01 T03430177  RH  037%=      5-min Rain = 0
KPD4 142345Z 11009KT 34/18 A2993 RMK A01 T03430177  RH  037%=      5-min Rain = 0
KPD4 142346Z 11014KT 34/17 A2993 RMK A01 T03430174  RH  037%=      5-min Rain = 0
KPD4 142347Z 11011KT 34/17 A2993 RMK A01 T03430174  RH  037%=      5-min Rain = 0
KPD4 142348Z 11010KT 34/18 A2993 RMK A01 T03430175  RH  037%=      5-min Rain = 0
KPD4 142349Z 11010KT 34/18 A2993 RMK A01 T03430177  RH  037%=      5-min Rain = 0
KPD4 142350Z 11012KT 34/18 A2993 RMK A01 T03420175  RH  037%=      5-min Rain = 0
KPD4 142351Z 12012KT 34/17 A2993 RMK A01 T03420174  RH  037%=      5-min Rain = 0
KPD4 142352Z 12012KT 34/17 A2993 RMK A01 T03420174  RH  037%=      5-min Rain = 0
KPD4 142353Z 12012KT 34/17 A2993 RMK A01 T03430174  RH  037%=      5-min Rain = 0
KPD4 142354Z 12012KT 34/18 A2993 RMK A01 T03430175  RH  037%=      5-min Rain = 0
KPD4 142355Z 12012KT 34/17 A2993 RMK A01 T03430172  RH  036%=      5-min Rain = 0
KPD4 142356Z 12014KT 34/17 A2993 RMK A01 T03430171  RH  036%=      5-min Rain = 0
KPD4 142357Z 12014KT 34/17 A2993 RMK A01 T03430169  RH  036%=      5-min Rain = 0
KPD4 142358Z 12013KT 34/17 A2993 RMK A01 T03430170  RH  036%=      5-min Rain = 0
KPD4 142359Z 12013KT 34/17 A2993 RMK A01 T03430168  RH  035%=      5-min Rain = 0
KPD4 150000Z 12014KT 34/17 A2993 RMK A01 T03430168  RH  035%=      5-min Rain = 0
KPD4 150001Z 12014KT 34/17 A2993 RMK A01 T03430167  RH  035%=      5-min Rain = 0
KPD4 150002Z 12011KT 34/17 A2993 RMK A01 T03440168  RH  035%=      5-min Rain = 0
KPD4 150003Z 12013KT 34/17 A2993 RMK A01 T03430169  RH  035%=      5-min Rain = 0
KPD4 150004Z 12013KT 34/17 A2993 RMK A01 T03430168  RH  035%=      5-min Rain = 0
KPD4 150005Z 12013KT 34/17 A2993 RMK A01 T03430168  RH  035%=      5-min Rain = 0
KPD4 150006Z 12013KT 34/17 A2993 RMK A01 T03430167  RH  035%=      5-min Rain = 0
KPD4 150007Z 12016KT 34/17 A2993 RMK A01 T03430167  RH  035%=      5-min Rain = 0
KPD4 150008Z 13013KT 34/17 A2993 RMK A01 T03440167  RH  035%=      5-min Rain = 0
KPD4 150009Z 14012KT 34/17 A2993 RMK A01 T03440169  RH  035%=      5-min Rain = 0
KPD4 150010Z 14010KT 34/17 A2993 RMK A01 T03430170  RH  036%=      5-min Rain = 0
KPD4 150011Z 14011KT 34/17 A2993 RMK A01 T03430171  RH  036%=      5-min Rain = 0
KPD4 150012Z 13012KT 34/17 A2993 RMK A01 T03430170  RH  036%=      5-min Rain = 0
KPD4 150013Z 13015G20KT 34/17 A2994 RMK A01 T03440172  RH  036%=      5-min Rain = 0
KPD4 150014Z 13018KT 35/17 A2994 RMK A01 T03450172  RH  036%=      5-min Rain = 0
KPD4 150015Z 14017G22KT 35/17 A2994 RMK A01 T03450174  RH  036%=      5-min Rain = 0
KPD4 150016Z 15015KT 35/18 A2994 RMK A01 T03450175  RH  037%=      5-min Rain = 0
KPD4 150017Z 15012KT 35/18 A2995 RMK A01 T03450177  RH  037%=      5-min Rain = 0
KPD4 150018Z 16011KT 34/18 A2995 RMK A01 T03440178  RH  037%=      5-min Rain = 0
KPD4 150019Z 16010KT 34/18 A2995 RMK A01 T03440179  RH  038%=      5-min Rain = 0
KPD4 150020Z 17010KT 34/17 A2995 RMK A01 T03440174  RH  037%=      5-min Rain = 0
KPD4 150021Z 17011KT 34/17 A2995 RMK A01 T03440172  RH  036%=      5-min Rain = 0
KPD4 150022Z 15010KT 34/17 A2995 RMK A01 T03440170  RH  036%=      5-min Rain = 0
KPD4 150023Z 16009KT 34/17 A2995 RMK A01 T03430171  RH  036%=      5-min Rain = 0
KPD4 150024Z 17010KT 34/17 A2995 RMK A01 T03430171  RH  036%=      5-min Rain = 0
KPD4 150025Z 16010KT 34/17 A2995 RMK A01 T03420170  RH  036%=      5-min Rain = 0
KPD4 150026Z 16011KT 34/17 A2995 RMK A01 T03420171  RH  036%=      5-min Rain = 0
KPD4 150027Z 15011KT 34/17 A2995 RMK A01 T03410169  RH  036%=      5-min Rain = 0
KPD4 150028Z 14009KT 34/17 A2995 RMK A01 T03400171  RH  037%=      5-min Rain = 0
KPD4 150029Z 15011KT 34/17 A2995 RMK A01 T03400171  RH  037%=      5-min Rain = 0
KPD4 150030Z 15009KT 34/17 A2995 RMK A01 T03390170  RH  037%=      5-min Rain = 0
KPD4 150031Z 16009KT 34/17 A2995 RMK A01 T03380172  RH  037%=      5-min Rain = 0
KPD4 150032Z 16009KT 34/17 A2995 RMK A01 T03380170  RH  037%=      5-min Rain = 0
KPD4 150033Z 16008KT 34/17 A2995 RMK A01 T03370171  RH  037%=      5-min Rain = 0
KPD4 150034Z 16008KT 34/17 A2995 RMK A01 T03370173  RH  038%=      5-min Rain = 0
KPD4 150035Z 15008KT 34/17 A2995 RMK A01 T03370171  RH  037%=      5-min Rain = 0
KPD4 150036Z 15008KT 34/17 A2995 RMK A01 T03360173  RH  038%=      5-min Rain = 0
KPD4 150037Z 14008KT 34/17 A2995 RMK A01 T03350173  RH  038%=      5-min Rain = 0
KPD4 150038Z 14008KT 33/17 A2995 RMK A01 T03330173  RH  038%=      5-min Rain = 0
KPD4 150039Z 14010KT 33/17 A2995 RMK A01 T03320173  RH  039%=      5-min Rain = 0
KPD4 150040Z 16009KT 33/17 A2995 RMK A01 T03310169  RH  038%=      5-min Rain = 0
KPD4 150041Z 16008KT 33/17 A2995 RMK A01 T03310169  RH  038%=      5-min Rain = 0
KPD4 150042Z 15010KT 33/17 A2995 RMK A01 T03310170  RH  038%=      5-min Rain = 0
KPD4 150043Z 15008KT 33/17 A2995 RMK A01 T03300170  RH  039%=      5-min Rain = 0
KPD4 150044Z 16008KT 33/17 A2995 RMK A01 T03300169  RH  038%=      5-min Rain = 0
KPD4 150045Z 16007KT 33/17 A2996 RMK A01 T03300171  RH  039%=      5-min Rain = 0
KPD4 150046Z 15007KT 33/17 A2996 RMK A01 T03280172  RH  039%=      5-min Rain = 0
KPD4 150047Z 15006KT 33/17 A2996 RMK A01 T03270172  RH  040%=      5-min Rain = 0
KPD4 150048Z 14006KT 33/17 A2996 RMK A01 T03260173  RH  040%=      5-min Rain = 0
KPD4 150049Z 13006KT 33/17 A2997 RMK A01 T03250173  RH  040%=      5-min Rain = 0
KPD4 150050Z 14004KT 33/18 A2997 RMK A01 T03250175  RH  041%=      5-min Rain = 0
KPD4 150051Z 13004KT 32/18 A2997 RMK A01 T03240177  RH  041%=      5-min Rain = 0
KPD4 150052Z 13005KT 32/18 A2997 RMK A01 T03230177  RH  042%=      5-min Rain = 0
KPD4 150053Z 13005KT 32/18 A2997 RMK A01 T03220177  RH  042%=      5-min Rain = 0
KPD4 150054Z 13005KT 32/18 A2997 RMK A01 T03220177  RH  042%=      5-min Rain = 0
KPD4 150055Z 13005KT 32/18 A2997 RMK A01 T03210177  RH  042%=      5-min Rain = 0
KPD4 150056Z 13005KT 32/18 A2997 RMK A01 T03200177  RH  042%=      5-min Rain = 0
KPD4 150057Z 13005KT 32/18 A2997 RMK A01 T03190177  RH  043%=      5-min Rain = 0
KPD4 150058Z 13006KT 32/18 A2997 RMK A01 T03190175  RH  042%=      5-min Rain = 0
KPD4 150059Z 12006KT 32/18 A2996 RMK A01 T03190175  RH  042%=      5-min Rain = 0
KPD4 150100Z 12006KT 32/18 A2996 RMK A01 T03190175  RH  042%=      5-min Rain = 0
KPD4 150101Z 13006KT 32/18 A2996 RMK A01 T03180176  RH  043%=      5-min Rain = 0
KPD4 150102Z 13006KT 32/18 A2996 RMK A01 T03170177  RH  043%=      5-min Rain = 0
KPD4 150103Z 13007KT 32/18 A2995 RMK A01 T03160177  RH  044%=      5-min Rain = 0
KPD4 150104Z 13008KT 32/18 A2995 RMK A01 T03150177  RH  044%=      5-min Rain = 0
KPD4 150105Z 13007KT 31/18 A2995 RMK A01 T03140176  RH  044%=      5-min Rain = 0
KPD4 150106Z 12006KT 31/18 A2995 RMK A01 T03140176  RH  044%=      5-min Rain = 0
KPD4 150107Z 13007KT 31/18 A2994 RMK A01 T03140176  RH  044%=      5-min Rain = 0
KPD4 150108Z 13007KT 31/18 A2994 RMK A01 T03140177  RH  044%=      5-min Rain = 0
KPD4 150109Z 13007KT 31/18 A2994 RMK A01 T03130177  RH  044%=      5-min Rain = 0
KPD4 150110Z 13007KT 31/18 A2994 RMK A01 T03130178  RH  044%=      5-min Rain = 0
KPD4 150111Z 14006KT 31/18 A2994 RMK A01 T03120178  RH  045%=      5-min Rain = 0
KPD4 150112Z 14007KT 31/18 A2994 RMK A01 T03110178  RH  045%=      5-min Rain = 0
KPD4 150113Z 14006KT 31/18 A2994 RMK A01 T03110178  RH  045%=      5-min Rain = 0
KPD4 150114Z 14006KT 31/18 A2994 RMK A01 T03100179  RH  045%=      5-min Rain = 0
KPD4 150115Z 14006KT 31/18 A2994 RMK A01 T03090178  RH  046%=      5-min Rain = 0
KPD4 150116Z 14006KT 31/18 A2994 RMK A01 T03090179  RH  046%=      5-min Rain = 0
KPD4 150117Z 14006KT 31/18 A2994 RMK A01 T03090179  RH  046%=      5-min Rain = 0
KPD4 150118Z 13005KT 31/18 A2994 RMK A01 T03080178  RH  046%=      5-min Rain = 0
KPD4 150119Z 13005KT 31/18 A2994 RMK A01 T03080178  RH  046%=      5-min Rain = 0
KPD4 150120Z 13004KT 31/18 A2994 RMK A01 T03070178  RH  046%=      5-min Rain = 0
KPD4 150121Z 12004KT 31/18 A2994 RMK A01 T03070179  RH  047%=      5-min Rain = 0
KPD4 150122Z 12003KT 31/18 A2994 RMK A01 T03060179  RH  047%=      5-min Rain = 0
KPD4 150123Z 12003KT 31/18 A2995 RMK A01 T03050178  RH  047%=      5-min Rain = 0
KPD4 150124Z 12003KT 31/18 A2995 RMK A01 T03050179  RH  047%=      5-min Rain = 0
KPD4 150125Z 12003KT 31/18 A2995 RMK A01 T03050179  RH  047%=      5-min Rain = 0
KPD4 150126Z 11003KT 31/18 A2995 RMK A01 T03050179  RH  047%=      5-min Rain = 0
KPD4 150127Z 10003KT 31/18 A2996 RMK A01 T03050179  RH  047%=      5-min Rain = 0
KPD4 150128Z 09002KT 31/18 A2996 RMK A01 T03050179  RH  047%=      5-min Rain = 0
KPD4 150129Z 08002KT 31/18 A2996 RMK A01 T03050179  RH  047%=      5-min Rain = 0
KPD4 150130Z 06002KT 31/18 A2997 RMK A01 T03060181  RH  047%=      5-min Rain = 0
KPD4 150131Z 05002KT 31/18 A2997 RMK A01 T03050182  RH  048%=      5-min Rain = 0
KPD4 150132Z 05002KT 31/18 A2997 RMK A01 T03060184  RH  048%=      5-min Rain = 0
KPD4 150133Z 04002KT 31/18 A2998 RMK A01 T03050183  RH  048%=      5-min Rain = 0
KPD4 150134Z 04002KT 31/18 A2998 RMK A01 T03050183  RH  048%=      5-min Rain = 0
KPD4 150135Z 04002KT 30/19 A2998 RMK A01 T03040185  RH  049%=      5-min Rain = 0
KPD4 150136Z 05002KT 30/19 A2998 RMK A01 T03020185  RH  049%=      5-min Rain = 0
KPD4 150137Z 06002KT 30/18 A2998 RMK A01 T03010184  RH  050%=      5-min Rain = 0
KPD4 150138Z 07003KT 30/18 A2998 RMK A01 T03000183  RH  050%=      5-min Rain = 0
KPD4 150139Z 07003KT 30/18 A2998 RMK A01 T02990183  RH  050%=      5-min Rain = 0
KPD4 150140Z 08002KT 30/18 A2998 RMK A01 T02990180  RH  049%=      5-min Rain = 0
KPD4 150141Z 08002KT 30/18 A2998 RMK A01 T02990180  RH  049%=      5-min Rain = 0
KPD4 150142Z 08002KT 30/18 A2998 RMK A01 T02990179  RH  048%=      5-min Rain = 0
KPD4 150143Z 08002KT 30/18 A2998 RMK A01 T02990177  RH  048%=      5-min Rain = 0
KPD4 150144Z 08001KT 30/18 A2999 RMK A01 T03000176  RH  047%=      5-min Rain = 0
KPD4 150145Z 10002KT 30/18 A2999 RMK A01 T03010176  RH  047%=      5-min Rain = 0
KPD4 150146Z 11002KT 30/18 A2999 RMK A01 T03010176  RH  047%=      5-min Rain = 0
KPD4 150147Z 11002KT 30/18 A2999 RMK A01 T03020175  RH  047%=      5-min Rain = 0
KPD4 150148Z 12001KT 30/18 A2999 RMK A01 T03030175  RH  046%=      5-min Rain = 0
KPD4 150149Z 12001KT 30/18 A2999 RMK A01 T03040175  RH  046%=      5-min Rain = 0
KPD4 150150Z 12001KT 30/18 A30 RMK A01 T03040175  RH  046%=      5-min Rain = 0
KPD4 150151Z 12001KT 31/18 A30 RMK A01 T03050175  RH  046%=      5-min Rain = 0
KPD4 150152Z 11000KT 31/18 A30 RMK A01 T03060175  RH  046%=      5-min Rain = 0
KPD4 150153Z 00000KT 31/18 A30 RMK A01 T03070176  RH  045%=      5-min Rain = 0
KPD4 150154Z 34000KT 31/18 A30 RMK A01 T03080178  RH  046%=      5-min Rain = 0
KPD4 150155Z 35002KT 31/18 A3001 RMK A01 T03060181  RH  047%=      5-min Rain = 0
KPD4 150156Z 35002KT 30/18 A3001 RMK A01 T03030179  RH  047%=      5-min Rain = 0
KPD4 150157Z 35002KT 30/18 A3001 RMK A01 T03030178  RH  047%=      5-min Rain = 0
KPD4 150158Z 34002KT 30/18 A30 RMK A01 T03020176  RH  047%=      5-min Rain = 0
KPD4 150159Z 35002KT 30/17 A30 RMK A01 T03040173  RH  045%=      5-min Rain = 0
KPD4 150200Z 00001KT 31/17 A30 RMK A01 T03070173  RH  045%=      5-min Rain = 0
KPD4 150201Z 00002KT 31/17 A30 RMK A01 T03090173  RH  044%=      5-min Rain = 0
KPD4 150202Z 01002KT 31/17 A30 RMK A01 T03100174  RH  044%=      5-min Rain = 0
KPD4 150203Z 36003KT 31/18 A30 RMK A01 T03100178  RH  045%=      5-min Rain = 0
KPD4 150204Z 35004KT 31/18 A30 RMK A01 T03080178  RH  046%=      5-min Rain = 0
KPD4 150205Z 34005KT 31/18 A3001 RMK A01 T03050179  RH  047%=      5-min Rain = 0
KPD4 150206Z 34007KT 30/18 A3001 RMK A01 T03020181  RH  048%=      5-min Rain = 0
KPD4 150207Z 34008KT 30/18 A3001 RMK A01 T02980181  RH  049%=      5-min Rain = 0
KPD4 150208Z 33010KT 30/18 A3002 RMK A01 T02950184  RH  051%=      5-min Rain = 0
KPD4 150209Z 33012KT 29/18 A3002 RMK A01 T02930182  RH  051%=      5-min Rain = 0
KPD4 150210Z 32013KT 29/18 A3002 RMK A01 T02920181  RH  051%=      5-min Rain = 0
KPD4 150211Z 32012KT 29/18 A3002 RMK A01 T02930180  RH  051%=      5-min Rain = 0
KPD4 150212Z 33014G24KT 29/18 A3003 RMK A01 T02930182  RH  051%=      5-min Rain = 0
KPD4 150213Z 35032G38KT 29/16 A3002 RMK A01 T02900160  RH  046%=      5-min Rain = 0
KPD4 150214Z 35028G33KT 28/15 A3002 RMK A01 T02800146  RH  044%=      5-min Rain = 0
KPD4 150215Z 35031KT 28/14 A3003 RMK A01 T02750143  RH  044%=      5-min Rain = 0
KPD4 150216Z 35028G34KT 27/14 A3004 RMK A01 T02720140  RH  044%=      5-min Rain = 0
KPD4 150217Z 36024G29KT 27/14 A3004 RMK A01 T02730139  RH  044%=      5-min Rain = 0
KPD4 150218Z 35026KT 27/14 A3004 RMK A01 T02740139  RH  043%=      5-min Rain = 0
KPD4 150219Z 36023KT 28/14 A3004 RMK A01 T02760140  RH  043%=      5-min Rain = 0
KPD4 150220Z 00024G29KT 28/14 A3004 RMK A01 T02770142  RH  044%=      5-min Rain = 0
KPD4 150221Z 36026G32KT 28/15 A3004 RMK A01 T02760152  RH  047%=      5-min Rain = 0
KPD4 150222Z 36035G42KT 27/16 A3003 RMK A01 T02720156  RH  049%=      5-min Rain = 0
KPD4 150223Z 00042G51KT 27/16 A3002 RMK A01 T02680158  RH  051%=      5-min Rain = 0
KPD4 150224Z 36033KT 27/16 A3003 RMK A01 T02660158  RH  052%=      5-min Rain = 0
KPD4 150225Z 00035G40KT 26/16 A3004 RMK A01 T02640158  RH  052%=      5-min Rain = 0
KPD4 150226Z 00028G36KT 26/16 A3004 RMK A01 T02630157  RH  052%=      5-min Rain = 0
KPD4 150227Z 01026G36KT 26/16 A3004 RMK A01 T02610158  RH  053%=      5-min Rain = 0
KPD4 150228Z 36035G42KT 26/16 A3003 RMK A01 T02610157  RH  053%=      5-min Rain = 0
KPD4 150229Z 01029G40KT 26/16 A3004 RMK A01 T02640157  RH  052%=      5-min Rain = 0
KPD4 150230Z 00035G44KT 27/16 A3004 RMK A01 T02650157  RH  051%=      5-min Rain = 0
KPD4 150231Z 36031G38KT 26/16 A3004 RMK A01 T02640156  RH  051%=      5-min Rain = 0
KPD4 150232Z 36031KT 26/16 A3004 RMK A01 T02610156  RH  052%=      5-min Rain = 0
KPD4 150233Z 00028KT 26/16 A3004 RMK A01 T02580156  RH  053%=      5-min Rain = 0
KPD4 150234Z 01028G35KT 26/16 A3005 RMK A01 T02580158  RH  054%=      5-min Rain = 0
KPD4 150235Z 36034G39KT 26/15 A3005 RMK A01 T02620152  RH  051%=      5-min Rain = 0
KPD4 150236Z 35030G38KT 27/15 A3006 RMK A01 T02660147  RH  048%=      5-min Rain = 0
KPD4 150237Z 35027G33KT 27/14 A3007 RMK A01 T02690142  RH  046%=      5-min Rain = 0
KPD4 150238Z 34031G38KT 27/14 A3007 RMK A01 T02700141  RH  045%=      5-min Rain = 0
KPD4 150239Z 34029G36KT 27/14 A3009 RMK A01 T02730138  RH  044%=      5-min Rain = 0
KPD4 150240Z 33027G36KT 27/14 A301 RMK A01 T02740143  RH  044%=      5-min Rain = 0
KPD4 150241Z 31033G39KT 27/15 A3013 RMK A01 T02730151  RH  047%=      5-min Rain = 0
KPD4 150242Z 31035G41KT 26/16 A3013 RMK A01 T02600155  RH  052%=      5-min Rain = 0
KPD4 150243Z 30036G42KT 25/16 A3013 RMK A01 T02460157  RH  058%=      5-min Rain = 0
KPD4 150244Z 30033KT 24/16 A3014 RMK A01 T02380160  RH  061%=      5-min Rain = 0
KPD4 150245Z 31035G40KT 23/16 A3014 RMK A01 T02340160  RH  063%=      5-min Rain = 0
KPD4 150246Z 31037G43KT 23/16 A3014 RMK A01 T02310158  RH  063%=      5-min Rain = 0
KPD4 150247Z 30039KT 23/15 A3014 RMK A01 T02270154  RH  063%=      5-min Rain = 0
KPD4 150248Z 29042G51KT 22/16 A3014 RMK A01 T02220155  RH  066%=      5-min Rain = 0
KPD4 150249Z 30048G58KT 21/16 A3013 RMK A01 T02130159  RH  071%=      5-min Rain = 0
KPD4 150250Z 29037G46KT 21/16 A3014 RMK A01 T02080157  RH  073%=      5-min Rain = 0
KPD4 150251Z 29040G47KT 21/16 A3015 RMK A01 T02070158  RH  074%=      5-min Rain = 0
KPD4 150252Z 29042G49KT 21/16 A3015 RMK A01 T02070159  RH  074%=      5-min Rain = 0
KPD4 150253Z 28035G43KT 21/16 A3016 RMK A01 T02090158  RH  073%=      5-min Rain = 0
KPD4 150254Z 27038G48KT 21/16 A3015 RMK A01 T02090163  RH  075%=      5-min Rain = 0
KPD4 150255Z 27034G40KT 21/16 A3016 RMK A01 T02070161  RH  075%=      5-min Rain = 0
KPD4 150256Z 26037G45KT 21/16 A3016 RMK A01 T02070159  RH  074%=      5-min Rain = 0
KPD4 150257Z 26038KT 21/16 A3016 RMK A01 T02110156  RH  071%=      5-min Rain = 0.01
KPD4 150258Z 27034KT 21/16 A3016 RMK A01 T02120155  RH  070%=      5-min Rain = 0
KPD4 150259Z 26033KT 21/16 A3016 RMK A01 T02110158  RH  072%=      5-min Rain = 0.01
KPD4 150300Z 25031G36KT 21/16 A3016 RMK A01 T02060161  RH  075%=      5-min Rain = 0
KPD4 150301Z 25027G34KT 20/16 A3017 RMK A01 T02020161  RH  077%=      5-min Rain = 0
KPD4 150302Z 25027KT 20/16 A3017 RMK A01 T02010158  RH  076%=      5-min Rain = 0
KPD4 150303Z 24025KT 20/16 A3017 RMK A01 T02030157  RH  075%=      5-min Rain = 0
KPD4 150304Z 23026G32KT 20/16 A3016 RMK A01 T02030159  RH  076%=      5-min Rain = 0
KPD4 150305Z 22023KT 20/16 A3017 RMK A01 T02010158  RH  076%=      5-min Rain = 0
KPD4 150306Z 23023G30KT 20/15 A3017 RMK A01 T02030153  RH  073%=      5-min Rain = 0.01
KPD4 150307Z 22020G28KT 21/15 A3018 RMK A01 T02080154  RH  071%=      5-min Rain = 0
KPD4 150308Z 22019KT 21/15 A3017 RMK A01 T02110150  RH  068%=      5-min Rain = 0
KPD4 150309Z 24018G25KT 22/15 A3018 RMK A01 T02160147  RH  065%=      5-min Rain = 0
KPD4 150310Z 21016KT 22/15 A3018 RMK A01 T02180149  RH  065%=      5-min Rain = 0
KPD4 150311Z 21013KT 22/15 A3018 RMK A01 T02190147  RH  064%=      5-min Rain = 0
KPD4 150312Z 23016KT 22/15 A3017 RMK A01 T02160151  RH  066%=      5-min Rain = 0
KPD4 150313Z 22017KT 21/15 A3017 RMK A01 T02140149  RH  067%=      5-min Rain = 0.01
KPD4 150314Z 22018KT 21/15 A3016 RMK A01 T02130152  RH  068%=      5-min Rain = 0
KPD4 150315Z 22021KT 21/15 A3016 RMK A01 T02110154  RH  070%=      5-min Rain = 0
KPD4 150316Z 22019KT 21/15 A3016 RMK A01 T02090152  RH  070%=      5-min Rain = 0
KPD4 150317Z 23021G26KT 21/15 A3015 RMK A01 T02080154  RH  071%=      5-min Rain = 0
KPD4 150318Z 24027KT 21/15 A3015 RMK A01 T02070152  RH  071%=      5-min Rain = 0
KPD4 150319Z 24029KT 21/15 A3014 RMK A01 T02080151  RH  069%=      5-min Rain = 0
KPD4 150320Z 24027KT 21/15 A3014 RMK A01 T02090151  RH  069%=      5-min Rain = 0
KPD4 150321Z 24029KT 21/15 A3014 RMK A01 T02070152  RH  071%=      5-min Rain = 0
KPD4 150322Z 24031KT 21/15 A3013 RMK A01 T02080147  RH  068%=      5-min Rain = 0
KPD4 150323Z 24029KT 21/15 A3013 RMK A01 T02100149  RH  068%=      5-min Rain = 0
KPD4 150324Z 24030KT 21/15 A3013 RMK A01 T02090148  RH  068%=      5-min Rain = 0
KPD4 150325Z 23030KT 21/15 A3012 RMK A01 T02090147  RH  067%=      5-min Rain = 0
KPD4 150326Z 23027KT 21/15 A3012 RMK A01 T02100145  RH  066%=      5-min Rain = 0.01
KPD4 150327Z 23027KT 21/14 A3011 RMK A01 T02100143  RH  065%=      5-min Rain = 0
KPD4 150328Z 22025KT 21/14 A301 RMK A01 T02120139  RH  063%=      5-min Rain = 0
KPD4 150329Z 22020KT 22/14 A301 RMK A01 T02160135  RH  060%=      5-min Rain = 0
KPD4 150330Z 22027KT 22/13 A301 RMK A01 T02220128  RH  055%=      5-min Rain = 0
KPD4 150331Z 22025KT 23/13 A301 RMK A01 T02310129  RH  053%=      5-min Rain = 0
KPD4 150332Z 22022KT 23/13 A301 RMK A01 T02310130  RH  053%=      5-min Rain = 0
KPD4 150333Z 21022KT 23/13 A301 RMK A01 T02300130  RH  053%=      5-min Rain = 0
KPD4 150334Z 21021G27KT 23/13 A301 RMK A01 T02300129  RH  053%=      5-min Rain = 0
KPD4 150335Z 20020G29KT 23/13 A301 RMK A01 T02290130  RH  054%=      5-min Rain = 0
KPD4 150336Z 20022KT 23/13 A3009 RMK A01 T02310126  RH  052%=      5-min Rain = 0
KPD4 150337Z 20024KT 23/13 A3009 RMK A01 T02310127  RH  052%=      5-min Rain = 0
KPD4 150338Z 20017KT 23/13 A301 RMK A01 T02310129  RH  052%=      5-min Rain = 0
KPD4 150339Z 19019G25KT 23/13 A301 RMK A01 T02260130  RH  055%=      5-min Rain = 0
KPD4 150340Z 18016KT 23/13 A3009 RMK A01 T02260131  RH  055%=      5-min Rain = 0
KPD4 150341Z 18022KT 22/13 A3008 RMK A01 T02240131  RH  055%=      5-min Rain = 0
KPD4 150342Z 18021KT 22/13 A3007 RMK A01 T02240131  RH  056%=      5-min Rain = 0
KPD4 150343Z 19019KT 22/13 A3007 RMK A01 T02240130  RH  055%=      5-min Rain = 0
KPD4 150344Z 17018KT 23/12 A3007 RMK A01 T02280123  RH  051%=      5-min Rain = 0
KPD4 150345Z 15013KT 23/13 A3008 RMK A01 T02340125  RH  050%=      5-min Rain = 0
KPD4 150346Z 14009KT 24/13 A3008 RMK A01 T02360125  RH  050%=      5-min Rain = 0
KPD4 150347Z 14010KT 24/13 A3008 RMK A01 T02350127  RH  051%=      5-min Rain = 0
KPD4 150348Z 13011KT 24/13 A3007 RMK A01 T02350125  RH  050%=      5-min Rain = 0
KPD4 150349Z 12008KT 24/13 A3008 RMK A01 T02350126  RH  050%=      5-min Rain = 0
KPD4 150350Z 12006KT 24/12 A3007 RMK A01 T02360122  RH  049%=      5-min Rain = 0
KPD4 150351Z 10005KT 24/13 A3007 RMK A01 T02370126  RH  050%=      5-min Rain = 0
KPD4 150352Z 14009KT 24/12 A3006 RMK A01 T02380116  RH  046%=      5-min Rain = 0
KPD4 150353Z 10013KT 25/10 A3006 RMK A01 T02520103  RH  039%=      5-min Rain = 0
KPD4 150354Z 09013KT 26/10 A3005 RMK A01 T02610101  RH  037%=      5-min Rain = 0
KPD4 150355Z 07009KT 28/07 A3005 RMK A01 T02840068  RH  026%=      5-min Rain = 0
KPD4 150356Z 10010KT 30/11 A3006 RMK A01 T02950109  RH  032%=      5-min Rain = 0
KPD4 150357Z 07007KT 28/12 A3007 RMK A01 T02810115  RH  036%=      5-min Rain = 0
KPD4 150358Z 07007KT 27/11 A3007 RMK A01 T02710107  RH  036%=      5-min Rain = 0
KPD4 150359Z 11007KT 27/10 A3007 RMK A01 T02700097  RH  034%=      5-min Rain = 0
KPD4 150400Z 12009KT 27/10 A3007 RMK A01 T02720099  RH  034%=      5-min Rain = 0
KPD4 150401Z 13007KT 28/09 A3006 RMK A01 T02760086  RH  030%=      5-min Rain = 0
KPD4 150402Z 11006KT 28/10 A3006 RMK A01 T02810100  RH  032%=      5-min Rain = 0
KPD4 150403Z 05008KT 28/10 A3008 RMK A01 T02810102  RH  033%=      5-min Rain = 0
KPD4 150404Z 06005KT 28/10 A3008 RMK A01 T02770102  RH  033%=      5-min Rain = 0
KPD4 150405Z 14007KT 28/09 A3007 RMK A01 T02780088  RH  030%=      5-min Rain = 0
KPD4 150406Z 21010KT 29/07 A3005 RMK A01 T02890071  RH  025%=      5-min Rain = 0
KPD4 150407Z 26013G20KT 31/06 A3005 RMK A01 T03060062  RH  022%=      5-min Rain = 0
KPD4 150408Z 34006KT 32/06 A3005 RMK A01 T03230055  RH  019%=      5-min Rain = 0
KPD4 150409Z 08013KT 32/10 A3006 RMK A01 T03230100  RH  025%=      5-min Rain = 0
KPD4 150410Z 11010KT 30/11 A3006 RMK A01 T03030105  RH  029%=      5-min Rain = 0
KPD4 150411Z 13009KT 29/09 A3005 RMK A01 T02930091  RH  028%=      5-min Rain = 0
KPD4 150412Z 13003KT 29/07 A3005 RMK A01 T02930073  RH  025%=      5-min Rain = 0
KPD4 150413Z 12009KT 30/06 A3004 RMK A01 T03010064  RH  023%=      5-min Rain = 0
KPD4 150414Z 11010KT 31/08 A3004 RMK A01 T03050083  RH  025%=      5-min Rain = 0
KPD4 150415Z 14007KT 31/07 A3003 RMK A01 T03050072  RH  023%=      5-min Rain = 0
KPD4 150416Z 16008KT 31/07 A3003 RMK A01 T03080069  RH  022%=      5-min Rain = 0
KPD4 150417Z 05006KT 31/06 A3004 RMK A01 T03130055  RH  020%=      5-min Rain = 0
KPD4 150418Z 05010G15KT 32/06 A3003 RMK A01 T03210060  RH  020%=      5-min Rain = 0
KPD4 150419Z 11012KT 32/08 A3003 RMK A01 T03210084  RH  023%=      5-min Rain = 0
KPD4 150420Z 11009KT 31/10 A3003 RMK A01 T03100099  RH  027%=      5-min Rain = 0
KPD4 150421Z 12010KT 30/10 A3003 RMK A01 T02980096  RH  028%=      5-min Rain = 0
KPD4 150422Z 15007KT 29/09 A3003 RMK A01 T02940093  RH  028%=      5-min Rain = 0
KPD4 150423Z 16006KT 29/09 A3003 RMK A01 T02930089  RH  028%=      5-min Rain = 0
KPD4 150424Z 15008KT 29/09 A3003 RMK A01 T02930087  RH  028%=      5-min Rain = 0
KPD4 150425Z 13009KT 29/09 A3002 RMK A01 T02940090  RH  028%=      5-min Rain = 0
KPD4 150426Z 12009G16KT 29/10 A3002 RMK A01 T02930096  RH  029%=      5-min Rain = 0
KPD4 150427Z 14015KT 29/09 A3002 RMK A01 T02910091  RH  029%=      5-min Rain = 0
KPD4 150428Z 15014KT 29/08 A3002 RMK A01 T02920082  RH  027%=      5-min Rain = 0
KPD4 150429Z 16013KT 30/08 A3001 RMK A01 T02970081  RH  026%=      5-min Rain = 0
KPD4 150430Z 16009KT 30/08 A3001 RMK A01 T02990084  RH  026%=      5-min Rain = 0
KPD4 150431Z 17008KT 30/08 A30 RMK A01 T02990084  RH  026%=      5-min Rain = 0
KPD4 150432Z 14010KT 30/07 A2999 RMK A01 T03000067  RH  023%=      5-min Rain = 0
KPD4 150433Z 10014G19KT 31/06 A2999 RMK A01 T03070064  RH  022%=      5-min Rain = 0
KPD4 150434Z 07015KT 31/07 A2999 RMK A01 T03110072  RH  023%=      5-min Rain = 0
KPD4 150435Z 08014KT 31/07 A2999 RMK A01 T03130066  RH  021%=      5-min Rain = 0
KPD4 150436Z 09013KT 31/07 A2999 RMK A01 T03130071  RH  022%=      5-min Rain = 0
KPD4 150437Z 10014KT 31/05 A2998 RMK A01 T03140054  RH  020%=      5-min Rain = 0
KPD4 150438Z 10016KT 32/06 A2998 RMK A01 T03200057  RH  019%=      5-min Rain = 0
KPD4 150439Z 10015KT 32/07 A2997 RMK A01 T03210066  RH  020%=      5-min Rain = 0
KPD4 150440Z 10020G25KT 32/06 A2997 RMK A01 T03200064  RH  020%=      5-min Rain = 0
KPD4 150441Z 11015KT 32/07 A2997 RMK A01 T03190067  RH  021%=      5-min Rain = 0
KPD4 150442Z 10016G21KT 32/07 A2997 RMK A01 T03190069  RH  021%=      5-min Rain = 0
KPD4 150443Z 11013KT 32/07 A2997 RMK A01 T03160070  RH  022%=      5-min Rain = 0
KPD4 150444Z 11015KT 32/07 A2996 RMK A01 T03150065  RH  021%=      5-min Rain = 0
KPD4 150445Z 11013KT 32/05 A2996 RMK A01 T03180052  RH  019%=      5-min Rain = 0
KPD4 150446Z 11011KT 32/07 A2996 RMK A01 T03210069  RH  021%=      5-min Rain = 0
KPD4 150447Z 11010KT 32/07 A2996 RMK A01 T03180070  RH  021%=      5-min Rain = 0
KPD4 150448Z 11011KT 32/07 A2996 RMK A01 T03160068  RH  021%=      5-min Rain = 0
KPD4 150449Z 10011KT 32/07 A2996 RMK A01 T03150070  RH  022%=      5-min Rain = 0
KPD4 150450Z 11012KT 31/07 A2996 RMK A01 T03130074  RH  022%=      5-min Rain = 0
KPD4 150451Z 12012KT 31/07 A2996 RMK A01 T03110072  RH  022%=      5-min Rain = 0
KPD4 150452Z 12012KT 31/06 A2996 RMK A01 T03130061  RH  021%=      5-min Rain = 0
KPD4 150453Z 12012KT 32/07 A2995 RMK A01 T03150067  RH  021%=      5-min Rain = 0
KPD4 150454Z 13015KT 32/07 A2996 RMK A01 T03150066  RH  021%=      5-min Rain = 0
KPD4 150455Z 12019G26KT 31/07 A2996 RMK A01 T03130067  RH  021%=      5-min Rain = 0
KPD4 150456Z 13014KT 31/07 A2996 RMK A01 T03130068  RH  022%=      5-min Rain = 0
KPD4 150457Z 12012KT 31/07 A2995 RMK A01 T03120071  RH  022%=      5-min Rain = 0
KPD4 150458Z 13013G18KT 31/07 A2996 RMK A01 T03100073  RH  023%=      5-min Rain = 0
KPD4 150459Z 14019KT 31/07 A2995 RMK A01 T03090068  RH  022%=      5-min Rain = 0

Page generated in 0.0688 seconds.